<?xml version="1.0" encoding="UTF-8" standalone="no" ?>
<gpx xmlns="http://www.topografix.com/GPX/1/1" xmlns:xsi="http://www.w3.org/2001/XMLSchema-instance" xsi:schemaLocation="http://www.topografix.com/GPX/1/1 http://www.topografix.com/GPX/1/1/gpx.xsd" version="1.1" creator="VisuGPX - https://www.visugpx.com">
  <metadata>
    <name>Le Lachat du Grand Bô. (Aravis)</name>
    <desc><![CDATA[Départ du Chinaillon, montée par le Maroli, Mont Lachat, descente par les Outalay et la Floria.
Photos et commentaires sur : [url]http://www.photosrandos.fr[/url]]]></desc>
  </metadata>
  <trk>
    <name><![CDATA[11 déc. 2018 à 09:55:42]]></name>
    <cmt><![CDATA[11 déc. 2018 à 09:55:42]]></cmt>
    <trkseg>
      <trkpt lat="45.97432" lon="6.45853">
        <ele>1276</ele>
        <time>2018-12-11T08:58:48Z</time>
      </trkpt>
      <trkpt lat="45.97432" lon="6.45853">
        <ele>1276</ele>
        <time>2018-12-11T08:59:08Z</time>
      </trkpt>
      <trkpt lat="45.97429" lon="6.45845">
        <ele>1276</ele>
        <time>2018-12-11T08:59:16Z</time>
      </trkpt>
      <trkpt lat="45.97419" lon="6.45835">
        <ele>1276</ele>
        <time>2018-12-11T08:59:28Z</time>
      </trkpt>
      <trkpt lat="45.97415" lon="6.45831">
        <ele>1276</ele>
        <time>2018-12-11T08:59:33Z</time>
      </trkpt>
      <trkpt lat="45.97413" lon="6.45825">
        <ele>1276</ele>
        <time>2018-12-11T08:59:38Z</time>
      </trkpt>
      <trkpt lat="45.97408" lon="6.45827">
        <ele>1276</ele>
        <time>2018-12-11T08:59:46Z</time>
      </trkpt>
      <trkpt lat="45.97406" lon="6.45834">
        <ele>1276</ele>
        <time>2018-12-11T09:01:20Z</time>
      </trkpt>
      <trkpt lat="45.97404" lon="6.4584">
        <ele>1276</ele>
        <time>2018-12-11T09:01:25Z</time>
      </trkpt>
      <trkpt lat="45.97399" lon="6.45847">
        <ele>1277</ele>
        <time>2018-12-11T09:01:33Z</time>
      </trkpt>
      <trkpt lat="45.97395" lon="6.45852">
        <ele>1278</ele>
        <time>2018-12-11T09:01:45Z</time>
      </trkpt>
      <trkpt lat="45.97389" lon="6.45854">
        <ele>1280</ele>
        <time>2018-12-11T09:01:57Z</time>
      </trkpt>
      <trkpt lat="45.97383" lon="6.4585">
        <ele>1280</ele>
        <time>2018-12-11T09:02:09Z</time>
      </trkpt>
      <trkpt lat="45.97379" lon="6.45853">
        <ele>1279</ele>
        <time>2018-12-11T09:02:21Z</time>
      </trkpt>
      <trkpt lat="45.97379" lon="6.4586">
        <ele>1279</ele>
        <time>2018-12-11T09:02:27Z</time>
      </trkpt>
      <trkpt lat="45.97382" lon="6.45893">
        <ele>1284</ele>
        <time>2018-12-11T09:02:57Z</time>
      </trkpt>
      <trkpt lat="45.97383" lon="6.45901">
        <ele>1285</ele>
        <time>2018-12-11T09:03:07Z</time>
      </trkpt>
      <trkpt lat="45.97387" lon="6.45908">
        <ele>1286</ele>
        <time>2018-12-11T09:03:17Z</time>
      </trkpt>
      <trkpt lat="45.97398" lon="6.45941">
        <ele>1291</ele>
        <time>2018-12-11T09:03:53Z</time>
      </trkpt>
      <trkpt lat="45.97401" lon="6.45951">
        <ele>1292</ele>
        <time>2018-12-11T09:04:05Z</time>
      </trkpt>
      <trkpt lat="45.97407" lon="6.45976">
        <ele>1295</ele>
        <time>2018-12-11T09:04:29Z</time>
      </trkpt>
      <trkpt lat="45.9741" lon="6.45981">
        <ele>1296</ele>
        <time>2018-12-11T09:04:35Z</time>
      </trkpt>
      <trkpt lat="45.97412" lon="6.45988">
        <ele>1296</ele>
        <time>2018-12-11T09:04:41Z</time>
      </trkpt>
      <trkpt lat="45.97418" lon="6.46003">
        <ele>1298</ele>
        <time>2018-12-11T09:04:56Z</time>
      </trkpt>
      <trkpt lat="45.97427" lon="6.4603">
        <ele>1300</ele>
        <time>2018-12-11T09:05:20Z</time>
      </trkpt>
      <trkpt lat="45.97429" lon="6.46036">
        <ele>1300</ele>
        <time>2018-12-11T09:05:25Z</time>
      </trkpt>
      <trkpt lat="45.97429" lon="6.4605">
        <ele>1302</ele>
        <time>2018-12-11T09:05:37Z</time>
      </trkpt>
      <trkpt lat="45.97431" lon="6.46056">
        <ele>1302</ele>
        <time>2018-12-11T09:05:42Z</time>
      </trkpt>
      <trkpt lat="45.97441" lon="6.46079">
        <ele>1304</ele>
        <time>2018-12-11T09:06:04Z</time>
      </trkpt>
      <trkpt lat="45.97449" lon="6.46114">
        <ele>1309</ele>
        <time>2018-12-11T09:06:38Z</time>
      </trkpt>
      <trkpt lat="45.97457" lon="6.46149">
        <ele>1313</ele>
        <time>2018-12-11T09:07:11Z</time>
      </trkpt>
      <trkpt lat="45.97466" lon="6.46171">
        <ele>1316</ele>
        <time>2018-12-11T09:07:33Z</time>
      </trkpt>
      <trkpt lat="45.9747" lon="6.46186">
        <ele>1317</ele>
        <time>2018-12-11T09:07:45Z</time>
      </trkpt>
      <trkpt lat="45.9747" lon="6.46193">
        <ele>1317</ele>
        <time>2018-12-11T09:07:50Z</time>
      </trkpt>
      <trkpt lat="45.97471" lon="6.46199">
        <ele>1318</ele>
        <time>2018-12-11T09:07:55Z</time>
      </trkpt>
      <trkpt lat="45.97475" lon="6.46207">
        <ele>1318</ele>
        <time>2018-12-11T09:08:02Z</time>
      </trkpt>
      <trkpt lat="45.9748" lon="6.46211">
        <ele>1319</ele>
        <time>2018-12-11T09:08:12Z</time>
      </trkpt>
      <trkpt lat="45.97484" lon="6.46222">
        <ele>1320</ele>
        <time>2018-12-11T09:08:24Z</time>
      </trkpt>
      <trkpt lat="45.97486" lon="6.4623">
        <ele>1320</ele>
        <time>2018-12-11T09:08:32Z</time>
      </trkpt>
      <trkpt lat="45.97497" lon="6.46268">
        <ele>1324</ele>
        <time>2018-12-11T09:09:11Z</time>
      </trkpt>
      <trkpt lat="45.97502" lon="6.46288">
        <ele>1326</ele>
        <time>2018-12-11T09:09:27Z</time>
      </trkpt>
      <trkpt lat="45.97503" lon="6.46295">
        <ele>1326</ele>
        <time>2018-12-11T09:09:32Z</time>
      </trkpt>
      <trkpt lat="45.97508" lon="6.46313">
        <ele>1328</ele>
        <time>2018-12-11T09:09:50Z</time>
      </trkpt>
      <trkpt lat="45.9751" lon="6.4633">
        <ele>1329</ele>
        <time>2018-12-11T09:10:15Z</time>
      </trkpt>
      <trkpt lat="45.97508" lon="6.46341">
        <ele>1330</ele>
        <time>2018-12-11T09:10:21Z</time>
      </trkpt>
      <trkpt lat="45.9751" lon="6.46352">
        <ele>1330</ele>
        <time>2018-12-11T09:10:30Z</time>
      </trkpt>
      <trkpt lat="45.97511" lon="6.46396">
        <ele>1334</ele>
        <time>2018-12-11T09:11:01Z</time>
      </trkpt>
      <trkpt lat="45.97512" lon="6.46439">
        <ele>1337</ele>
        <time>2018-12-11T09:11:36Z</time>
      </trkpt>
      <trkpt lat="45.97512" lon="6.46445">
        <ele>1338</ele>
        <time>2018-12-11T09:11:41Z</time>
      </trkpt>
      <trkpt lat="45.97511" lon="6.46455">
        <ele>1339</ele>
        <time>2018-12-11T09:11:49Z</time>
      </trkpt>
      <trkpt lat="45.97513" lon="6.46497">
        <ele>1342</ele>
        <time>2018-12-11T09:12:21Z</time>
      </trkpt>
      <trkpt lat="45.97513" lon="6.46504">
        <ele>1342</ele>
        <time>2018-12-11T09:12:25Z</time>
      </trkpt>
      <trkpt lat="45.9751" lon="6.46513">
        <ele>1343</ele>
        <time>2018-12-11T09:12:31Z</time>
      </trkpt>
      <trkpt lat="45.97512" lon="6.46529">
        <ele>1345</ele>
        <time>2018-12-11T09:12:50Z</time>
      </trkpt>
      <trkpt lat="45.97511" lon="6.46536">
        <ele>1345</ele>
        <time>2018-12-11T09:12:55Z</time>
      </trkpt>
      <trkpt lat="45.97514" lon="6.46561">
        <ele>1347</ele>
        <time>2018-12-11T09:13:13Z</time>
      </trkpt>
      <trkpt lat="45.97513" lon="6.46571">
        <ele>1348</ele>
        <time>2018-12-11T09:13:21Z</time>
      </trkpt>
      <trkpt lat="45.97513" lon="6.46579">
        <ele>1349</ele>
        <time>2018-12-11T09:13:29Z</time>
      </trkpt>
      <trkpt lat="45.97508" lon="6.46614">
        <ele>1351</ele>
        <time>2018-12-11T09:13:57Z</time>
      </trkpt>
      <trkpt lat="45.97508" lon="6.46621">
        <ele>1352</ele>
        <time>2018-12-11T09:14:02Z</time>
      </trkpt>
      <trkpt lat="45.97505" lon="6.46645">
        <ele>1353</ele>
        <time>2018-12-11T09:14:21Z</time>
      </trkpt>
      <trkpt lat="45.97507" lon="6.46651">
        <ele>1354</ele>
        <time>2018-12-11T09:14:27Z</time>
      </trkpt>
      <trkpt lat="45.97511" lon="6.46655">
        <ele>1355</ele>
        <time>2018-12-11T09:14:32Z</time>
      </trkpt>
      <trkpt lat="45.97509" lon="6.46664">
        <ele>1355</ele>
        <time>2018-12-11T09:14:37Z</time>
      </trkpt>
      <trkpt lat="45.97514" lon="6.46705">
        <ele>1358</ele>
        <time>2018-12-11T09:15:08Z</time>
      </trkpt>
      <trkpt lat="45.97513" lon="6.46715">
        <ele>1359</ele>
        <time>2018-12-11T09:15:16Z</time>
      </trkpt>
      <trkpt lat="45.97511" lon="6.46724">
        <ele>1360</ele>
        <time>2018-12-11T09:15:24Z</time>
      </trkpt>
      <trkpt lat="45.97512" lon="6.46738">
        <ele>1361</ele>
        <time>2018-12-11T09:15:35Z</time>
      </trkpt>
      <trkpt lat="45.97509" lon="6.46747">
        <ele>1361</ele>
        <time>2018-12-11T09:15:43Z</time>
      </trkpt>
      <trkpt lat="45.97509" lon="6.46754">
        <ele>1362</ele>
        <time>2018-12-11T09:15:48Z</time>
      </trkpt>
      <trkpt lat="45.97516" lon="6.46775">
        <ele>1364</ele>
        <time>2018-12-11T09:16:06Z</time>
      </trkpt>
      <trkpt lat="45.97517" lon="6.46809">
        <ele>1367</ele>
        <time>2018-12-11T09:16:35Z</time>
      </trkpt>
      <trkpt lat="45.9752" lon="6.46817">
        <ele>1368</ele>
        <time>2018-12-11T09:16:43Z</time>
      </trkpt>
      <trkpt lat="45.97519" lon="6.46823">
        <ele>1368</ele>
        <time>2018-12-11T09:16:48Z</time>
      </trkpt>
      <trkpt lat="45.97511" lon="6.46855">
        <ele>1371</ele>
        <time>2018-12-11T09:17:14Z</time>
      </trkpt>
      <trkpt lat="45.97511" lon="6.46865">
        <ele>1372</ele>
        <time>2018-12-11T09:17:24Z</time>
      </trkpt>
      <trkpt lat="45.97511" lon="6.46872">
        <ele>1372</ele>
        <time>2018-12-11T09:17:29Z</time>
      </trkpt>
      <trkpt lat="45.97511" lon="6.46879">
        <ele>1373</ele>
        <time>2018-12-11T09:17:34Z</time>
      </trkpt>
      <trkpt lat="45.97513" lon="6.46885">
        <ele>1373</ele>
        <time>2018-12-11T09:17:39Z</time>
      </trkpt>
      <trkpt lat="45.97513" lon="6.46895">
        <ele>1374</ele>
        <time>2018-12-11T09:17:47Z</time>
      </trkpt>
      <trkpt lat="45.97514" lon="6.46913">
        <ele>1376</ele>
        <time>2018-12-11T09:18:07Z</time>
      </trkpt>
      <trkpt lat="45.97508" lon="6.46926">
        <ele>1377</ele>
        <time>2018-12-11T09:18:16Z</time>
      </trkpt>
      <trkpt lat="45.97506" lon="6.46937">
        <ele>1379</ele>
        <time>2018-12-11T09:18:32Z</time>
      </trkpt>
      <trkpt lat="45.97503" lon="6.46944">
        <ele>1379</ele>
        <time>2018-12-11T09:18:37Z</time>
      </trkpt>
      <trkpt lat="45.97494" lon="6.46961">
        <ele>1380</ele>
        <time>2018-12-11T09:18:55Z</time>
      </trkpt>
      <trkpt lat="45.97489" lon="6.46992">
        <ele>1381</ele>
        <time>2018-12-11T09:19:15Z</time>
      </trkpt>
      <trkpt lat="45.97487" lon="6.47007">
        <ele>1382</ele>
        <time>2018-12-11T09:19:23Z</time>
      </trkpt>
      <trkpt lat="45.97486" lon="6.47014">
        <ele>1382</ele>
        <time>2018-12-11T09:19:28Z</time>
      </trkpt>
      <trkpt lat="45.97484" lon="6.47021">
        <ele>1382</ele>
        <time>2018-12-11T09:19:34Z</time>
      </trkpt>
      <trkpt lat="45.97484" lon="6.47029">
        <ele>1383</ele>
        <time>2018-12-11T09:19:42Z</time>
      </trkpt>
      <trkpt lat="45.97485" lon="6.47041">
        <ele>1383</ele>
        <time>2018-12-11T09:19:55Z</time>
      </trkpt>
      <trkpt lat="45.9748" lon="6.47053">
        <ele>1384</ele>
        <time>2018-12-11T09:20:03Z</time>
      </trkpt>
      <trkpt lat="45.97478" lon="6.47089">
        <ele>1387</ele>
        <time>2018-12-11T09:20:36Z</time>
      </trkpt>
      <trkpt lat="45.97475" lon="6.47117">
        <ele>1389</ele>
        <time>2018-12-11T09:20:53Z</time>
      </trkpt>
      <trkpt lat="45.97475" lon="6.47127">
        <ele>1390</ele>
        <time>2018-12-11T09:21:05Z</time>
      </trkpt>
      <trkpt lat="45.97469" lon="6.47143">
        <ele>1391</ele>
        <time>2018-12-11T09:21:22Z</time>
      </trkpt>
      <trkpt lat="45.97468" lon="6.4715">
        <ele>1392</ele>
        <time>2018-12-11T09:21:30Z</time>
      </trkpt>
      <trkpt lat="45.97467" lon="6.47158">
        <ele>1392</ele>
        <time>2018-12-11T09:21:33Z</time>
      </trkpt>
      <trkpt lat="45.97464" lon="6.47204">
        <ele>1395</ele>
        <time>2018-12-11T09:22:07Z</time>
      </trkpt>
      <trkpt lat="45.97463" lon="6.47216">
        <ele>1396</ele>
        <time>2018-12-11T09:22:18Z</time>
      </trkpt>
      <trkpt lat="45.97465" lon="6.47231">
        <ele>1398</ele>
        <time>2018-12-11T09:22:32Z</time>
      </trkpt>
      <trkpt lat="45.97467" lon="6.47242">
        <ele>1399</ele>
        <time>2018-12-11T09:22:44Z</time>
      </trkpt>
      <trkpt lat="45.97466" lon="6.47255">
        <ele>1399</ele>
        <time>2018-12-11T09:22:55Z</time>
      </trkpt>
      <trkpt lat="45.97467" lon="6.47262">
        <ele>1401</ele>
        <time>2018-12-11T09:23:09Z</time>
      </trkpt>
      <trkpt lat="45.9747" lon="6.47286">
        <ele>1404</ele>
        <time>2018-12-11T09:23:40Z</time>
      </trkpt>
      <trkpt lat="45.97473" lon="6.47313">
        <ele>1405</ele>
        <time>2018-12-11T09:23:59Z</time>
      </trkpt>
      <trkpt lat="45.97471" lon="6.47331">
        <ele>1407</ele>
        <time>2018-12-11T09:24:17Z</time>
      </trkpt>
      <trkpt lat="45.97458" lon="6.47372">
        <ele>1410</ele>
        <time>2018-12-11T09:24:52Z</time>
      </trkpt>
      <trkpt lat="45.9745" lon="6.47393">
        <ele>1411</ele>
        <time>2018-12-11T09:25:09Z</time>
      </trkpt>
      <trkpt lat="45.97445" lon="6.47407">
        <ele>1413</ele>
        <time>2018-12-11T09:25:23Z</time>
      </trkpt>
      <trkpt lat="45.97443" lon="6.47413">
        <ele>1413</ele>
        <time>2018-12-11T09:25:28Z</time>
      </trkpt>
      <trkpt lat="45.97435" lon="6.47429">
        <ele>1415</ele>
        <time>2018-12-11T09:25:54Z</time>
      </trkpt>
      <trkpt lat="45.97433" lon="6.47436">
        <ele>1415</ele>
        <time>2018-12-11T09:26:00Z</time>
      </trkpt>
      <trkpt lat="45.97416" lon="6.47467">
        <ele>1417</ele>
        <time>2018-12-11T09:26:27Z</time>
      </trkpt>
      <trkpt lat="45.97405" lon="6.47508">
        <ele>1418</ele>
        <time>2018-12-11T09:26:56Z</time>
      </trkpt>
      <trkpt lat="45.97404" lon="6.47517">
        <ele>1419</ele>
        <time>2018-12-11T09:27:03Z</time>
      </trkpt>
      <trkpt lat="45.97403" lon="6.47524">
        <ele>1419</ele>
        <time>2018-12-11T09:27:08Z</time>
      </trkpt>
      <trkpt lat="45.974" lon="6.47548">
        <ele>1420</ele>
        <time>2018-12-11T09:27:32Z</time>
      </trkpt>
      <trkpt lat="45.97398" lon="6.47554">
        <ele>1420</ele>
        <time>2018-12-11T09:27:36Z</time>
      </trkpt>
      <trkpt lat="45.97398" lon="6.4756">
        <ele>1420</ele>
        <time>2018-12-11T09:27:44Z</time>
      </trkpt>
      <trkpt lat="45.97396" lon="6.47567">
        <ele>1420</ele>
        <time>2018-12-11T09:27:56Z</time>
      </trkpt>
      <trkpt lat="45.97392" lon="6.47591">
        <ele>1422</ele>
        <time>2018-12-11T09:28:16Z</time>
      </trkpt>
      <trkpt lat="45.9739" lon="6.47597">
        <ele>1422</ele>
        <time>2018-12-11T09:28:21Z</time>
      </trkpt>
      <trkpt lat="45.97385" lon="6.47603">
        <ele>1422</ele>
        <time>2018-12-11T09:28:29Z</time>
      </trkpt>
      <trkpt lat="45.97381" lon="6.47619">
        <ele>1424</ele>
        <time>2018-12-11T09:28:47Z</time>
      </trkpt>
      <trkpt lat="45.97381" lon="6.47632">
        <ele>1427</ele>
        <time>2018-12-11T09:29:23Z</time>
      </trkpt>
      <trkpt lat="45.97382" lon="6.47641">
        <ele>1428</ele>
        <time>2018-12-11T09:29:29Z</time>
      </trkpt>
      <trkpt lat="45.97378" lon="6.47654">
        <ele>1429</ele>
        <time>2018-12-11T09:29:38Z</time>
      </trkpt>
      <trkpt lat="45.97359" lon="6.47682">
        <ele>1432</ele>
        <time>2018-12-11T09:30:06Z</time>
      </trkpt>
      <trkpt lat="45.97355" lon="6.47686">
        <ele>1432</ele>
        <time>2018-12-11T09:30:11Z</time>
      </trkpt>
      <trkpt lat="45.97346" lon="6.47692">
        <ele>1433</ele>
        <time>2018-12-11T09:30:20Z</time>
      </trkpt>
      <trkpt lat="45.9734" lon="6.47697">
        <ele>1434</ele>
        <time>2018-12-11T09:30:31Z</time>
      </trkpt>
      <trkpt lat="45.97328" lon="6.47713">
        <ele>1437</ele>
        <time>2018-12-11T09:30:55Z</time>
      </trkpt>
      <trkpt lat="45.97307" lon="6.4773">
        <ele>1440</ele>
        <time>2018-12-11T09:31:28Z</time>
      </trkpt>
      <trkpt lat="45.97302" lon="6.47736">
        <ele>1441</ele>
        <time>2018-12-11T09:31:38Z</time>
      </trkpt>
      <trkpt lat="45.97296" lon="6.47741">
        <ele>1442</ele>
        <time>2018-12-11T09:31:48Z</time>
      </trkpt>
      <trkpt lat="45.97292" lon="6.47746">
        <ele>1442</ele>
        <time>2018-12-11T09:31:53Z</time>
      </trkpt>
      <trkpt lat="45.97288" lon="6.47749">
        <ele>1443</ele>
        <time>2018-12-11T09:32:01Z</time>
      </trkpt>
      <trkpt lat="45.97274" lon="6.47772">
        <ele>1445</ele>
        <time>2018-12-11T09:32:28Z</time>
      </trkpt>
      <trkpt lat="45.97269" lon="6.47785">
        <ele>1445</ele>
        <time>2018-12-11T09:32:40Z</time>
      </trkpt>
      <trkpt lat="45.97265" lon="6.47797">
        <ele>1446</ele>
        <time>2018-12-11T09:32:52Z</time>
      </trkpt>
      <trkpt lat="45.97262" lon="6.47812">
        <ele>1447</ele>
        <time>2018-12-11T09:33:05Z</time>
      </trkpt>
      <trkpt lat="45.97252" lon="6.47834">
        <ele>1449</ele>
        <time>2018-12-11T09:33:26Z</time>
      </trkpt>
      <trkpt lat="45.97245" lon="6.4786">
        <ele>1451</ele>
        <time>2018-12-11T09:33:53Z</time>
      </trkpt>
      <trkpt lat="45.97242" lon="6.47866">
        <ele>1452</ele>
        <time>2018-12-11T09:33:59Z</time>
      </trkpt>
      <trkpt lat="45.9724" lon="6.47873">
        <ele>1453</ele>
        <time>2018-12-11T09:34:07Z</time>
      </trkpt>
      <trkpt lat="45.97232" lon="6.47886">
        <ele>1455</ele>
        <time>2018-12-11T09:34:25Z</time>
      </trkpt>
      <trkpt lat="45.97231" lon="6.47895">
        <ele>1455</ele>
        <time>2018-12-11T09:34:39Z</time>
      </trkpt>
      <trkpt lat="45.97233" lon="6.47906">
        <ele>1457</ele>
        <time>2018-12-11T09:34:51Z</time>
      </trkpt>
      <trkpt lat="45.97229" lon="6.47922">
        <ele>1460</ele>
        <time>2018-12-11T09:35:09Z</time>
      </trkpt>
      <trkpt lat="45.97212" lon="6.47949">
        <ele>1464</ele>
        <time>2018-12-11T09:35:46Z</time>
      </trkpt>
      <trkpt lat="45.97206" lon="6.47955">
        <ele>1466</ele>
        <time>2018-12-11T09:35:58Z</time>
      </trkpt>
      <trkpt lat="45.97199" lon="6.47959">
        <ele>1468</ele>
        <time>2018-12-11T09:36:10Z</time>
      </trkpt>
      <trkpt lat="45.97194" lon="6.47965">
        <ele>1469</ele>
        <time>2018-12-11T09:36:22Z</time>
      </trkpt>
      <trkpt lat="45.97198" lon="6.47997">
        <ele>1474</ele>
        <time>2018-12-11T09:37:04Z</time>
      </trkpt>
      <trkpt lat="45.972" lon="6.48013">
        <ele>1476</ele>
        <time>2018-12-11T09:37:22Z</time>
      </trkpt>
      <trkpt lat="45.97195" lon="6.48013">
        <ele>1478</ele>
        <time>2018-12-11T09:37:34Z</time>
      </trkpt>
      <trkpt lat="45.97189" lon="6.48012">
        <ele>1480</ele>
        <time>2018-12-11T09:37:46Z</time>
      </trkpt>
      <trkpt lat="45.97184" lon="6.48009">
        <ele>1481</ele>
        <time>2018-12-11T09:37:52Z</time>
      </trkpt>
      <trkpt lat="45.9718" lon="6.48006">
        <ele>1483</ele>
        <time>2018-12-11T09:38:06Z</time>
      </trkpt>
      <trkpt lat="45.97168" lon="6.47998">
        <ele>1485</ele>
        <time>2018-12-11T09:38:22Z</time>
      </trkpt>
      <trkpt lat="45.97166" lon="6.48018">
        <ele>1489</ele>
        <time>2018-12-11T09:38:48Z</time>
      </trkpt>
      <trkpt lat="45.97167" lon="6.48028">
        <ele>1490</ele>
        <time>2018-12-11T09:38:59Z</time>
      </trkpt>
      <trkpt lat="45.97167" lon="6.48036">
        <ele>1492</ele>
        <time>2018-12-11T09:39:10Z</time>
      </trkpt>
      <trkpt lat="45.97169" lon="6.48047">
        <ele>1493</ele>
        <time>2018-12-11T09:39:22Z</time>
      </trkpt>
      <trkpt lat="45.97169" lon="6.48057">
        <ele>1495</ele>
        <time>2018-12-11T09:39:34Z</time>
      </trkpt>
      <trkpt lat="45.9717" lon="6.48068">
        <ele>1496</ele>
        <time>2018-12-11T09:39:46Z</time>
      </trkpt>
      <trkpt lat="45.97171" lon="6.48075">
        <ele>1498</ele>
        <time>2018-12-11T09:39:58Z</time>
      </trkpt>
      <trkpt lat="45.97177" lon="6.48097">
        <ele>1502</ele>
        <time>2018-12-11T09:40:28Z</time>
      </trkpt>
      <trkpt lat="45.97169" lon="6.48096">
        <ele>1504</ele>
        <time>2018-12-11T09:40:40Z</time>
      </trkpt>
      <trkpt lat="45.97163" lon="6.48094">
        <ele>1506</ele>
        <time>2018-12-11T09:40:52Z</time>
      </trkpt>
      <trkpt lat="45.97167" lon="6.48121">
        <ele>1510</ele>
        <time>2018-12-11T09:41:28Z</time>
      </trkpt>
      <trkpt lat="45.97169" lon="6.48132">
        <ele>1512</ele>
        <time>2018-12-11T09:41:40Z</time>
      </trkpt>
      <trkpt lat="45.97172" lon="6.48138">
        <ele>1513</ele>
        <time>2018-12-11T09:41:46Z</time>
      </trkpt>
      <trkpt lat="45.97173" lon="6.48145">
        <ele>1514</ele>
        <time>2018-12-11T09:41:54Z</time>
      </trkpt>
      <trkpt lat="45.97171" lon="6.48155">
        <ele>1516</ele>
        <time>2018-12-11T09:42:06Z</time>
      </trkpt>
      <trkpt lat="45.97165" lon="6.48184">
        <ele>1522</ele>
        <time>2018-12-11T09:42:42Z</time>
      </trkpt>
      <trkpt lat="45.97164" lon="6.48203">
        <ele>1526</ele>
        <time>2018-12-11T09:43:06Z</time>
      </trkpt>
      <trkpt lat="45.97159" lon="6.48213">
        <ele>1528</ele>
        <time>2018-12-11T09:43:17Z</time>
      </trkpt>
      <trkpt lat="45.97155" lon="6.48223">
        <ele>1530</ele>
        <time>2018-12-11T09:43:28Z</time>
      </trkpt>
      <trkpt lat="45.97154" lon="6.48242">
        <ele>1534</ele>
        <time>2018-12-11T09:43:52Z</time>
      </trkpt>
      <trkpt lat="45.97149" lon="6.48257">
        <ele>1537</ele>
        <time>2018-12-11T09:44:11Z</time>
      </trkpt>
      <trkpt lat="45.97145" lon="6.48283">
        <ele>1543</ele>
        <time>2018-12-11T09:44:53Z</time>
      </trkpt>
      <trkpt lat="45.97142" lon="6.48292">
        <ele>1545</ele>
        <time>2018-12-11T09:45:05Z</time>
      </trkpt>
      <trkpt lat="45.97141" lon="6.48299">
        <ele>1547</ele>
        <time>2018-12-11T09:45:17Z</time>
      </trkpt>
      <trkpt lat="45.97143" lon="6.48306">
        <ele>1549</ele>
        <time>2018-12-11T09:45:29Z</time>
      </trkpt>
      <trkpt lat="45.97138" lon="6.48312">
        <ele>1551</ele>
        <time>2018-12-11T09:45:40Z</time>
      </trkpt>
      <trkpt lat="45.97135" lon="6.48316">
        <ele>1551</ele>
        <time>2018-12-11T09:45:46Z</time>
      </trkpt>
      <trkpt lat="45.97131" lon="6.48331">
        <ele>1555</ele>
        <time>2018-12-11T09:46:09Z</time>
      </trkpt>
      <trkpt lat="45.97123" lon="6.48332">
        <ele>1556</ele>
        <time>2018-12-11T09:46:20Z</time>
      </trkpt>
      <trkpt lat="45.97118" lon="6.48335">
        <ele>1559</ele>
        <time>2018-12-11T09:46:32Z</time>
      </trkpt>
      <trkpt lat="45.97119" lon="6.48342">
        <ele>1561</ele>
        <time>2018-12-11T09:46:50Z</time>
      </trkpt>
      <trkpt lat="45.97107" lon="6.4836">
        <ele>1566</ele>
        <time>2018-12-11T09:47:22Z</time>
      </trkpt>
      <trkpt lat="45.97099" lon="6.48363">
        <ele>1568</ele>
        <time>2018-12-11T09:47:35Z</time>
      </trkpt>
      <trkpt lat="45.97095" lon="6.48362">
        <ele>1569</ele>
        <time>2018-12-11T09:47:45Z</time>
      </trkpt>
      <trkpt lat="45.97089" lon="6.48358">
        <ele>1571</ele>
        <time>2018-12-11T09:49:33Z</time>
      </trkpt>
      <trkpt lat="45.97084" lon="6.48354">
        <ele>1565</ele>
        <time>2018-12-11T09:49:45Z</time>
      </trkpt>
      <trkpt lat="45.97079" lon="6.48352">
        <ele>1563</ele>
        <time>2018-12-11T09:49:57Z</time>
      </trkpt>
      <trkpt lat="45.97071" lon="6.48346">
        <ele>1565</ele>
        <time>2018-12-11T09:50:21Z</time>
      </trkpt>
      <trkpt lat="45.97066" lon="6.48339">
        <ele>1568</ele>
        <time>2018-12-11T09:51:33Z</time>
      </trkpt>
      <trkpt lat="45.97049" lon="6.48322">
        <ele>1575</ele>
        <time>2018-12-11T09:52:09Z</time>
      </trkpt>
      <trkpt lat="45.97046" lon="6.48316">
        <ele>1577</ele>
        <time>2018-12-11T09:52:21Z</time>
      </trkpt>
      <trkpt lat="45.97042" lon="6.48311">
        <ele>1580</ele>
        <time>2018-12-11T09:52:39Z</time>
      </trkpt>
      <trkpt lat="45.97037" lon="6.48306">
        <ele>1582</ele>
        <time>2018-12-11T09:52:50Z</time>
      </trkpt>
      <trkpt lat="45.97035" lon="6.48297">
        <ele>1584</ele>
        <time>2018-12-11T09:53:05Z</time>
      </trkpt>
      <trkpt lat="45.97029" lon="6.48294">
        <ele>1586</ele>
        <time>2018-12-11T09:53:20Z</time>
      </trkpt>
      <trkpt lat="45.97026" lon="6.48289">
        <ele>1588</ele>
        <time>2018-12-11T09:53:31Z</time>
      </trkpt>
      <trkpt lat="45.97018" lon="6.48278">
        <ele>1591</ele>
        <time>2018-12-11T09:53:55Z</time>
      </trkpt>
      <trkpt lat="45.97012" lon="6.48276">
        <ele>1593</ele>
        <time>2018-12-11T09:54:07Z</time>
      </trkpt>
      <trkpt lat="45.97008" lon="6.48273">
        <ele>1596</ele>
        <time>2018-12-11T09:54:31Z</time>
      </trkpt>
      <trkpt lat="45.97002" lon="6.48272">
        <ele>1598</ele>
        <time>2018-12-11T09:54:43Z</time>
      </trkpt>
      <trkpt lat="45.96998" lon="6.48267">
        <ele>1600</ele>
        <time>2018-12-11T09:54:55Z</time>
      </trkpt>
      <trkpt lat="45.96995" lon="6.48261">
        <ele>1602</ele>
        <time>2018-12-11T09:55:07Z</time>
      </trkpt>
      <trkpt lat="45.96977" lon="6.48251">
        <ele>1609</ele>
        <time>2018-12-11T09:55:55Z</time>
      </trkpt>
      <trkpt lat="45.96969" lon="6.48259">
        <ele>1612</ele>
        <time>2018-12-11T09:56:37Z</time>
      </trkpt>
      <trkpt lat="45.96965" lon="6.48265">
        <ele>1614</ele>
        <time>2018-12-11T09:56:49Z</time>
      </trkpt>
      <trkpt lat="45.96955" lon="6.48276">
        <ele>1617</ele>
        <time>2018-12-11T09:57:13Z</time>
      </trkpt>
      <trkpt lat="45.96949" lon="6.48283">
        <ele>1619</ele>
        <time>2018-12-11T09:57:25Z</time>
      </trkpt>
      <trkpt lat="45.96947" lon="6.4829">
        <ele>1621</ele>
        <time>2018-12-11T09:57:37Z</time>
      </trkpt>
      <trkpt lat="45.96946" lon="6.48298">
        <ele>1623</ele>
        <time>2018-12-11T09:57:55Z</time>
      </trkpt>
      <trkpt lat="45.96942" lon="6.48304">
        <ele>1625</ele>
        <time>2018-12-11T09:58:07Z</time>
      </trkpt>
      <trkpt lat="45.96939" lon="6.48313">
        <ele>1627</ele>
        <time>2018-12-11T09:58:19Z</time>
      </trkpt>
      <trkpt lat="45.96939" lon="6.4832">
        <ele>1628</ele>
        <time>2018-12-11T09:58:31Z</time>
      </trkpt>
      <trkpt lat="45.96937" lon="6.48338">
        <ele>1632</ele>
        <time>2018-12-11T09:59:01Z</time>
      </trkpt>
      <trkpt lat="45.96936" lon="6.48349">
        <ele>1635</ele>
        <time>2018-12-11T09:59:19Z</time>
      </trkpt>
      <trkpt lat="45.96937" lon="6.48357">
        <ele>1636</ele>
        <time>2018-12-11T09:59:27Z</time>
      </trkpt>
      <trkpt lat="45.96929" lon="6.48374">
        <ele>1640</ele>
        <time>2018-12-11T09:59:52Z</time>
      </trkpt>
      <trkpt lat="45.96916" lon="6.48374">
        <ele>1642</ele>
        <time>2018-12-11T10:00:50Z</time>
      </trkpt>
      <trkpt lat="45.96911" lon="6.48377">
        <ele>1643</ele>
        <time>2018-12-11T10:00:56Z</time>
      </trkpt>
      <trkpt lat="45.96899" lon="6.48382">
        <ele>1646</ele>
        <time>2018-12-11T10:01:20Z</time>
      </trkpt>
      <trkpt lat="45.9688" lon="6.48389">
        <ele>1650</ele>
        <time>2018-12-11T10:01:56Z</time>
      </trkpt>
      <trkpt lat="45.96873" lon="6.48393">
        <ele>1652</ele>
        <time>2018-12-11T10:02:08Z</time>
      </trkpt>
      <trkpt lat="45.96847" lon="6.48396">
        <ele>1657</ele>
        <time>2018-12-11T10:02:50Z</time>
      </trkpt>
      <trkpt lat="45.96824" lon="6.4839">
        <ele>1662</ele>
        <time>2018-12-11T10:03:26Z</time>
      </trkpt>
      <trkpt lat="45.96805" lon="6.48384">
        <ele>1666</ele>
        <time>2018-12-11T10:03:56Z</time>
      </trkpt>
      <trkpt lat="45.9679" lon="6.48382">
        <ele>1669</ele>
        <time>2018-12-11T10:08:49Z</time>
      </trkpt>
      <trkpt lat="45.96781" lon="6.48384">
        <ele>1670</ele>
        <time>2018-12-11T10:08:59Z</time>
      </trkpt>
      <trkpt lat="45.96776" lon="6.48386">
        <ele>1671</ele>
        <time>2018-12-11T10:09:07Z</time>
      </trkpt>
      <trkpt lat="45.96771" lon="6.48387">
        <ele>1672</ele>
        <time>2018-12-11T10:09:18Z</time>
      </trkpt>
      <trkpt lat="45.96759" lon="6.48396">
        <ele>1675</ele>
        <time>2018-12-11T10:09:38Z</time>
      </trkpt>
      <trkpt lat="45.96747" lon="6.48404">
        <ele>1677</ele>
        <time>2018-12-11T10:09:56Z</time>
      </trkpt>
      <trkpt lat="45.96731" lon="6.48422">
        <ele>1681</ele>
        <time>2018-12-11T10:10:27Z</time>
      </trkpt>
      <trkpt lat="45.96725" lon="6.48435">
        <ele>1682</ele>
        <time>2018-12-11T10:10:37Z</time>
      </trkpt>
      <trkpt lat="45.96721" lon="6.48438">
        <ele>1683</ele>
        <time>2018-12-11T10:10:45Z</time>
      </trkpt>
      <trkpt lat="45.96715" lon="6.48445">
        <ele>1683</ele>
        <time>2018-12-11T10:10:56Z</time>
      </trkpt>
      <trkpt lat="45.9671" lon="6.48456">
        <ele>1684</ele>
        <time>2018-12-11T10:11:05Z</time>
      </trkpt>
      <trkpt lat="45.96691" lon="6.48479">
        <ele>1685</ele>
        <time>2018-12-11T10:11:32Z</time>
      </trkpt>
      <trkpt lat="45.96687" lon="6.48482">
        <ele>1685</ele>
        <time>2018-12-11T10:11:36Z</time>
      </trkpt>
      <trkpt lat="45.96675" lon="6.48495">
        <ele>1686</ele>
        <time>2018-12-11T10:11:54Z</time>
      </trkpt>
      <trkpt lat="45.96658" lon="6.48513">
        <ele>1690</ele>
        <time>2018-12-11T10:12:25Z</time>
      </trkpt>
      <trkpt lat="45.96644" lon="6.48523">
        <ele>1696</ele>
        <time>2018-12-11T10:13:01Z</time>
      </trkpt>
      <trkpt lat="45.9664" lon="6.48528">
        <ele>1697</ele>
        <time>2018-12-11T10:13:13Z</time>
      </trkpt>
      <trkpt lat="45.96637" lon="6.48545">
        <ele>1702</ele>
        <time>2018-12-11T10:13:43Z</time>
      </trkpt>
      <trkpt lat="45.96636" lon="6.48553">
        <ele>1704</ele>
        <time>2018-12-11T10:13:55Z</time>
      </trkpt>
      <trkpt lat="45.9663" lon="6.48559">
        <ele>1707</ele>
        <time>2018-12-11T10:14:13Z</time>
      </trkpt>
      <trkpt lat="45.96624" lon="6.48559">
        <ele>1710</ele>
        <time>2018-12-11T10:14:39Z</time>
      </trkpt>
      <trkpt lat="45.96619" lon="6.48558">
        <ele>1712</ele>
        <time>2018-12-11T10:14:54Z</time>
      </trkpt>
      <trkpt lat="45.966" lon="6.48559">
        <ele>1718</ele>
        <time>2018-12-11T10:15:35Z</time>
      </trkpt>
      <trkpt lat="45.96592" lon="6.48562">
        <ele>1719</ele>
        <time>2018-12-11T10:15:47Z</time>
      </trkpt>
      <trkpt lat="45.96585" lon="6.48569">
        <ele>1721</ele>
        <time>2018-12-11T10:15:59Z</time>
      </trkpt>
      <trkpt lat="45.96581" lon="6.48573">
        <ele>1723</ele>
        <time>2018-12-11T10:16:11Z</time>
      </trkpt>
      <trkpt lat="45.96577" lon="6.48579">
        <ele>1725</ele>
        <time>2018-12-11T10:16:23Z</time>
      </trkpt>
      <trkpt lat="45.96574" lon="6.48585">
        <ele>1727</ele>
        <time>2018-12-11T10:16:35Z</time>
      </trkpt>
      <trkpt lat="45.96568" lon="6.48591">
        <ele>1728</ele>
        <time>2018-12-11T10:16:47Z</time>
      </trkpt>
      <trkpt lat="45.96566" lon="6.48598">
        <ele>1729</ele>
        <time>2018-12-11T10:16:59Z</time>
      </trkpt>
      <trkpt lat="45.96551" lon="6.48618">
        <ele>1734</ele>
        <time>2018-12-11T10:17:35Z</time>
      </trkpt>
      <trkpt lat="45.96544" lon="6.48629">
        <ele>1737</ele>
        <time>2018-12-11T10:17:59Z</time>
      </trkpt>
      <trkpt lat="45.96538" lon="6.48632">
        <ele>1739</ele>
        <time>2018-12-11T10:18:11Z</time>
      </trkpt>
      <trkpt lat="45.96532" lon="6.48647">
        <ele>1744</ele>
        <time>2018-12-11T10:18:41Z</time>
      </trkpt>
      <trkpt lat="45.96529" lon="6.48652">
        <ele>1746</ele>
        <time>2018-12-11T10:18:59Z</time>
      </trkpt>
      <trkpt lat="45.96521" lon="6.48661">
        <ele>1751</ele>
        <time>2018-12-11T10:19:29Z</time>
      </trkpt>
      <trkpt lat="45.96504" lon="6.48675">
        <ele>1758</ele>
        <time>2018-12-11T10:20:18Z</time>
      </trkpt>
      <trkpt lat="45.96489" lon="6.48688">
        <ele>1764</ele>
        <time>2018-12-11T10:21:00Z</time>
      </trkpt>
      <trkpt lat="45.96475" lon="6.487">
        <ele>1767</ele>
        <time>2018-12-11T10:21:25Z</time>
      </trkpt>
      <trkpt lat="45.96468" lon="6.48702">
        <ele>1768</ele>
        <time>2018-12-11T10:21:35Z</time>
      </trkpt>
      <trkpt lat="45.96464" lon="6.48707">
        <ele>1770</ele>
        <time>2018-12-11T10:21:45Z</time>
      </trkpt>
      <trkpt lat="45.96454" lon="6.48714">
        <ele>1775</ele>
        <time>2018-12-11T10:22:16Z</time>
      </trkpt>
      <trkpt lat="45.96442" lon="6.48721">
        <ele>1780</ele>
        <time>2018-12-11T10:22:52Z</time>
      </trkpt>
      <trkpt lat="45.96438" lon="6.48724">
        <ele>1782</ele>
        <time>2018-12-11T10:23:04Z</time>
      </trkpt>
      <trkpt lat="45.96426" lon="6.48728">
        <ele>1788</ele>
        <time>2018-12-11T10:23:46Z</time>
      </trkpt>
      <trkpt lat="45.96419" lon="6.48733">
        <ele>1789</ele>
        <time>2018-12-11T10:23:58Z</time>
      </trkpt>
      <trkpt lat="45.96413" lon="6.48736">
        <ele>1791</ele>
        <time>2018-12-11T10:24:10Z</time>
      </trkpt>
      <trkpt lat="45.96406" lon="6.48738">
        <ele>1794</ele>
        <time>2018-12-11T10:24:28Z</time>
      </trkpt>
      <trkpt lat="45.96396" lon="6.48743">
        <ele>1799</ele>
        <time>2018-12-11T10:25:04Z</time>
      </trkpt>
      <trkpt lat="45.96381" lon="6.48752">
        <ele>1805</ele>
        <time>2018-12-11T10:25:46Z</time>
      </trkpt>
      <trkpt lat="45.96371" lon="6.48754">
        <ele>1808</ele>
        <time>2018-12-11T10:26:06Z</time>
      </trkpt>
      <trkpt lat="45.9636" lon="6.48761">
        <ele>1813</ele>
        <time>2018-12-11T10:26:42Z</time>
      </trkpt>
      <trkpt lat="45.96355" lon="6.48764">
        <ele>1815</ele>
        <time>2018-12-11T10:26:54Z</time>
      </trkpt>
      <trkpt lat="45.96349" lon="6.48764">
        <ele>1818</ele>
        <time>2018-12-11T10:27:12Z</time>
      </trkpt>
      <trkpt lat="45.96345" lon="6.48767">
        <ele>1819</ele>
        <time>2018-12-11T10:27:24Z</time>
      </trkpt>
      <trkpt lat="45.96337" lon="6.48768">
        <ele>1819</ele>
        <time>2018-12-11T10:27:54Z</time>
      </trkpt>
      <trkpt lat="45.96346" lon="6.48762">
        <ele>1815</ele>
        <time>2018-12-11T10:38:14Z</time>
      </trkpt>
      <trkpt lat="45.964" lon="6.48732">
        <ele>1794</ele>
        <time>2018-12-11T10:38:40Z</time>
      </trkpt>
      <trkpt lat="45.96407" lon="6.48732">
        <ele>1791</ele>
        <time>2018-12-11T10:38:42Z</time>
      </trkpt>
      <trkpt lat="45.96419" lon="6.48741">
        <ele>1789</ele>
        <time>2018-12-11T10:38:46Z</time>
      </trkpt>
      <trkpt lat="45.96425" lon="6.48742">
        <ele>1786</ele>
        <time>2018-12-11T10:38:48Z</time>
      </trkpt>
      <trkpt lat="45.96481" lon="6.48693">
        <ele>1764</ele>
        <time>2018-12-11T10:39:05Z</time>
      </trkpt>
      <trkpt lat="45.96485" lon="6.48687">
        <ele>1763</ele>
        <time>2018-12-11T10:39:06Z</time>
      </trkpt>
      <trkpt lat="45.96488" lon="6.48679">
        <ele>1762</ele>
        <time>2018-12-11T10:39:07Z</time>
      </trkpt>
      <trkpt lat="45.96488" lon="6.48674">
        <ele>1762</ele>
        <time>2018-12-11T10:39:10Z</time>
      </trkpt>
      <trkpt lat="45.96502" lon="6.48671">
        <ele>1758</ele>
        <time>2018-12-11T10:39:32Z</time>
      </trkpt>
      <trkpt lat="45.96515" lon="6.48666">
        <ele>1752</ele>
        <time>2018-12-11T10:39:36Z</time>
      </trkpt>
      <trkpt lat="45.96522" lon="6.4866">
        <ele>1748</ele>
        <time>2018-12-11T10:39:38Z</time>
      </trkpt>
      <trkpt lat="45.96543" lon="6.48621">
        <ele>1740</ele>
        <time>2018-12-11T10:39:43Z</time>
      </trkpt>
      <trkpt lat="45.96557" lon="6.48616">
        <ele>1734</ele>
        <time>2018-12-11T10:39:45Z</time>
      </trkpt>
      <trkpt lat="45.96576" lon="6.48587">
        <ele>1727</ele>
        <time>2018-12-11T10:39:48Z</time>
      </trkpt>
      <trkpt lat="45.96579" lon="6.4858">
        <ele>1725</ele>
        <time>2018-12-11T10:39:50Z</time>
      </trkpt>
      <trkpt lat="45.96574" lon="6.48579">
        <ele>1725</ele>
        <time>2018-12-11T10:39:52Z</time>
      </trkpt>
      <trkpt lat="45.96572" lon="6.48567">
        <ele>1724</ele>
        <time>2018-12-11T10:40:29Z</time>
      </trkpt>
      <trkpt lat="45.96571" lon="6.4855">
        <ele>1722</ele>
        <time>2018-12-11T10:40:35Z</time>
      </trkpt>
      <trkpt lat="45.96573" lon="6.48536">
        <ele>1720</ele>
        <time>2018-12-11T10:40:37Z</time>
      </trkpt>
      <trkpt lat="45.96579" lon="6.48525">
        <ele>1717</ele>
        <time>2018-12-11T10:40:39Z</time>
      </trkpt>
      <trkpt lat="45.96584" lon="6.48516">
        <ele>1715</ele>
        <time>2018-12-11T10:40:41Z</time>
      </trkpt>
      <trkpt lat="45.96586" lon="6.4851">
        <ele>1714</ele>
        <time>2018-12-11T10:40:42Z</time>
      </trkpt>
      <trkpt lat="45.96599" lon="6.48491">
        <ele>1710</ele>
        <time>2018-12-11T10:40:46Z</time>
      </trkpt>
      <trkpt lat="45.96598" lon="6.48482">
        <ele>1710</ele>
        <time>2018-12-11T10:40:49Z</time>
      </trkpt>
      <trkpt lat="45.96598" lon="6.48473">
        <ele>1709</ele>
        <time>2018-12-11T10:40:51Z</time>
      </trkpt>
      <trkpt lat="45.96602" lon="6.48466">
        <ele>1707</ele>
        <time>2018-12-11T10:40:53Z</time>
      </trkpt>
      <trkpt lat="45.96627" lon="6.48432">
        <ele>1699</ele>
        <time>2018-12-11T10:40:59Z</time>
      </trkpt>
      <trkpt lat="45.96631" lon="6.48427">
        <ele>1699</ele>
        <time>2018-12-11T10:41:00Z</time>
      </trkpt>
      <trkpt lat="45.96636" lon="6.48423">
        <ele>1698</ele>
        <time>2018-12-11T10:41:01Z</time>
      </trkpt>
      <trkpt lat="45.96646" lon="6.48411">
        <ele>1698</ele>
        <time>2018-12-11T10:41:05Z</time>
      </trkpt>
      <trkpt lat="45.96649" lon="6.48404">
        <ele>1697</ele>
        <time>2018-12-11T10:41:07Z</time>
      </trkpt>
      <trkpt lat="45.96651" lon="6.48399">
        <ele>1697</ele>
        <time>2018-12-11T10:41:17Z</time>
      </trkpt>
      <trkpt lat="45.96659" lon="6.48386">
        <ele>1697</ele>
        <time>2018-12-11T10:41:36Z</time>
      </trkpt>
      <trkpt lat="45.96662" lon="6.48378">
        <ele>1698</ele>
        <time>2018-12-11T10:41:48Z</time>
      </trkpt>
      <trkpt lat="45.96664" lon="6.48371">
        <ele>1697</ele>
        <time>2018-12-11T10:42:06Z</time>
      </trkpt>
      <trkpt lat="45.96663" lon="6.48362">
        <ele>1698</ele>
        <time>2018-12-11T10:49:15Z</time>
      </trkpt>
      <trkpt lat="45.9666" lon="6.48348">
        <ele>1699</ele>
        <time>2018-12-11T10:49:25Z</time>
      </trkpt>
      <trkpt lat="45.96661" lon="6.48341">
        <ele>1699</ele>
        <time>2018-12-11T10:49:33Z</time>
      </trkpt>
      <trkpt lat="45.9666" lon="6.48333">
        <ele>1699</ele>
        <time>2018-12-11T10:49:39Z</time>
      </trkpt>
      <trkpt lat="45.96658" lon="6.48323">
        <ele>1700</ele>
        <time>2018-12-11T10:49:47Z</time>
      </trkpt>
      <trkpt lat="45.9666" lon="6.48312">
        <ele>1700</ele>
        <time>2018-12-11T10:50:01Z</time>
      </trkpt>
      <trkpt lat="45.96658" lon="6.48305">
        <ele>1700</ele>
        <time>2018-12-11T10:50:05Z</time>
      </trkpt>
      <trkpt lat="45.96657" lon="6.48297">
        <ele>1701</ele>
        <time>2018-12-11T10:50:11Z</time>
      </trkpt>
      <trkpt lat="45.96659" lon="6.4829">
        <ele>1703</ele>
        <time>2018-12-11T10:50:25Z</time>
      </trkpt>
      <trkpt lat="45.96657" lon="6.4827">
        <ele>1705</ele>
        <time>2018-12-11T10:50:50Z</time>
      </trkpt>
      <trkpt lat="45.96649" lon="6.48238">
        <ele>1707</ele>
        <time>2018-12-11T10:51:20Z</time>
      </trkpt>
      <trkpt lat="45.96645" lon="6.48224">
        <ele>1707</ele>
        <time>2018-12-11T10:51:25Z</time>
      </trkpt>
      <trkpt lat="45.96642" lon="6.48209">
        <ele>1707</ele>
        <time>2018-12-11T10:51:36Z</time>
      </trkpt>
      <trkpt lat="45.96638" lon="6.48193">
        <ele>1709</ele>
        <time>2018-12-11T10:51:54Z</time>
      </trkpt>
      <trkpt lat="45.96639" lon="6.48185">
        <ele>1710</ele>
        <time>2018-12-11T10:52:22Z</time>
      </trkpt>
      <trkpt lat="45.96634" lon="6.48153">
        <ele>1712</ele>
        <time>2018-12-11T10:52:46Z</time>
      </trkpt>
      <trkpt lat="45.96634" lon="6.48143">
        <ele>1713</ele>
        <time>2018-12-11T10:53:00Z</time>
      </trkpt>
      <trkpt lat="45.9663" lon="6.48138">
        <ele>1714</ele>
        <time>2018-12-11T10:53:18Z</time>
      </trkpt>
      <trkpt lat="45.96622" lon="6.48138">
        <ele>1715</ele>
        <time>2018-12-11T10:53:30Z</time>
      </trkpt>
      <trkpt lat="45.96609" lon="6.48137">
        <ele>1718</ele>
        <time>2018-12-11T10:53:54Z</time>
      </trkpt>
      <trkpt lat="45.96603" lon="6.48138">
        <ele>1720</ele>
        <time>2018-12-11T10:54:06Z</time>
      </trkpt>
      <trkpt lat="45.966" lon="6.48124">
        <ele>1722</ele>
        <time>2018-12-11T10:54:24Z</time>
      </trkpt>
      <trkpt lat="45.96601" lon="6.48115">
        <ele>1722</ele>
        <time>2018-12-11T10:54:36Z</time>
      </trkpt>
      <trkpt lat="45.966" lon="6.48105">
        <ele>1722</ele>
        <time>2018-12-11T10:55:17Z</time>
      </trkpt>
      <trkpt lat="45.966" lon="6.48096">
        <ele>1723</ele>
        <time>2018-12-11T10:55:31Z</time>
      </trkpt>
      <trkpt lat="45.96598" lon="6.48089">
        <ele>1724</ele>
        <time>2018-12-11T10:55:37Z</time>
      </trkpt>
      <trkpt lat="45.96595" lon="6.48083">
        <ele>1725</ele>
        <time>2018-12-11T10:55:49Z</time>
      </trkpt>
      <trkpt lat="45.96582" lon="6.48081">
        <ele>1729</ele>
        <time>2018-12-11T10:56:13Z</time>
      </trkpt>
      <trkpt lat="45.96578" lon="6.48076">
        <ele>1731</ele>
        <time>2018-12-11T10:56:31Z</time>
      </trkpt>
      <trkpt lat="45.96575" lon="6.48071">
        <ele>1734</ele>
        <time>2018-12-11T10:56:55Z</time>
      </trkpt>
      <trkpt lat="45.96556" lon="6.48069">
        <ele>1739</ele>
        <time>2018-12-11T10:57:30Z</time>
      </trkpt>
      <trkpt lat="45.96552" lon="6.48064">
        <ele>1741</ele>
        <time>2018-12-11T10:57:45Z</time>
      </trkpt>
      <trkpt lat="45.96549" lon="6.48058">
        <ele>1741</ele>
        <time>2018-12-11T10:58:00Z</time>
      </trkpt>
      <trkpt lat="45.96543" lon="6.48055">
        <ele>1742</ele>
        <time>2018-12-11T10:58:11Z</time>
      </trkpt>
      <trkpt lat="45.96537" lon="6.48053">
        <ele>1744</ele>
        <time>2018-12-11T10:58:29Z</time>
      </trkpt>
      <trkpt lat="45.96524" lon="6.48044">
        <ele>1750</ele>
        <time>2018-12-11T10:59:11Z</time>
      </trkpt>
      <trkpt lat="45.9652" lon="6.48035">
        <ele>1752</ele>
        <time>2018-12-11T10:59:24Z</time>
      </trkpt>
      <trkpt lat="45.96516" lon="6.48029">
        <ele>1754</ele>
        <time>2018-12-11T10:59:36Z</time>
      </trkpt>
      <trkpt lat="45.96504" lon="6.48036">
        <ele>1758</ele>
        <time>2018-12-11T11:00:12Z</time>
      </trkpt>
      <trkpt lat="45.96481" lon="6.48042">
        <ele>1762</ele>
        <time>2018-12-11T11:00:48Z</time>
      </trkpt>
      <trkpt lat="45.96478" lon="6.48038">
        <ele>1764</ele>
        <time>2018-12-11T11:01:00Z</time>
      </trkpt>
      <trkpt lat="45.96473" lon="6.48031">
        <ele>1767</ele>
        <time>2018-12-11T11:01:18Z</time>
      </trkpt>
      <trkpt lat="45.96462" lon="6.48029">
        <ele>1771</ele>
        <time>2018-12-11T11:01:42Z</time>
      </trkpt>
      <trkpt lat="45.96457" lon="6.48032">
        <ele>1772</ele>
        <time>2018-12-11T11:01:54Z</time>
      </trkpt>
      <trkpt lat="45.96452" lon="6.48034">
        <ele>1775</ele>
        <time>2018-12-11T11:02:12Z</time>
      </trkpt>
      <trkpt lat="45.96442" lon="6.48044">
        <ele>1777</ele>
        <time>2018-12-11T11:02:30Z</time>
      </trkpt>
      <trkpt lat="45.96436" lon="6.48048">
        <ele>1778</ele>
        <time>2018-12-11T11:02:42Z</time>
      </trkpt>
      <trkpt lat="45.9643" lon="6.4805">
        <ele>1779</ele>
        <time>2018-12-11T11:02:54Z</time>
      </trkpt>
      <trkpt lat="45.96425" lon="6.48043">
        <ele>1781</ele>
        <time>2018-12-11T11:03:06Z</time>
      </trkpt>
      <trkpt lat="45.96423" lon="6.48034">
        <ele>1782</ele>
        <time>2018-12-11T11:03:30Z</time>
      </trkpt>
      <trkpt lat="45.96422" lon="6.48025">
        <ele>1784</ele>
        <time>2018-12-11T11:03:42Z</time>
      </trkpt>
      <trkpt lat="45.9642" lon="6.48019">
        <ele>1784</ele>
        <time>2018-12-11T11:03:47Z</time>
      </trkpt>
      <trkpt lat="45.96416" lon="6.48004">
        <ele>1787</ele>
        <time>2018-12-11T11:04:09Z</time>
      </trkpt>
      <trkpt lat="45.96409" lon="6.48006">
        <ele>1789</ele>
        <time>2018-12-11T11:04:27Z</time>
      </trkpt>
      <trkpt lat="45.96403" lon="6.48011">
        <ele>1791</ele>
        <time>2018-12-11T11:04:38Z</time>
      </trkpt>
      <trkpt lat="45.96397" lon="6.48013">
        <ele>1792</ele>
        <time>2018-12-11T11:04:48Z</time>
      </trkpt>
      <trkpt lat="45.96392" lon="6.48018">
        <ele>1793</ele>
        <time>2018-12-11T11:04:58Z</time>
      </trkpt>
      <trkpt lat="45.96385" lon="6.48003">
        <ele>1797</ele>
        <time>2018-12-11T11:05:54Z</time>
      </trkpt>
      <trkpt lat="45.96379" lon="6.47993">
        <ele>1799</ele>
        <time>2018-12-11T11:06:17Z</time>
      </trkpt>
      <trkpt lat="45.96375" lon="6.47993">
        <ele>1800</ele>
        <time>2018-12-11T11:06:22Z</time>
      </trkpt>
      <trkpt lat="45.96356" lon="6.47998">
        <ele>1804</ele>
        <time>2018-12-11T11:06:54Z</time>
      </trkpt>
      <trkpt lat="45.96351" lon="6.4799">
        <ele>1806</ele>
        <time>2018-12-11T11:08:07Z</time>
      </trkpt>
      <trkpt lat="45.96347" lon="6.47986">
        <ele>1809</ele>
        <time>2018-12-11T11:08:25Z</time>
      </trkpt>
      <trkpt lat="45.9634" lon="6.47988">
        <ele>1811</ele>
        <time>2018-12-11T11:08:37Z</time>
      </trkpt>
      <trkpt lat="45.96337" lon="6.4798">
        <ele>1813</ele>
        <time>2018-12-11T11:08:55Z</time>
      </trkpt>
      <trkpt lat="45.96334" lon="6.47974">
        <ele>1815</ele>
        <time>2018-12-11T11:09:13Z</time>
      </trkpt>
      <trkpt lat="45.96328" lon="6.47974">
        <ele>1817</ele>
        <time>2018-12-11T11:09:25Z</time>
      </trkpt>
      <trkpt lat="45.96323" lon="6.47974">
        <ele>1819</ele>
        <time>2018-12-11T11:09:37Z</time>
      </trkpt>
      <trkpt lat="45.96322" lon="6.47965">
        <ele>1821</ele>
        <time>2018-12-11T11:09:55Z</time>
      </trkpt>
      <trkpt lat="45.96315" lon="6.47964">
        <ele>1823</ele>
        <time>2018-12-11T11:10:07Z</time>
      </trkpt>
      <trkpt lat="45.96313" lon="6.47957">
        <ele>1825</ele>
        <time>2018-12-11T11:10:19Z</time>
      </trkpt>
      <trkpt lat="45.96314" lon="6.47937">
        <ele>1828</ele>
        <time>2018-12-11T11:10:49Z</time>
      </trkpt>
      <trkpt lat="45.96302" lon="6.47937">
        <ele>1832</ele>
        <time>2018-12-11T11:11:19Z</time>
      </trkpt>
      <trkpt lat="45.963" lon="6.47929">
        <ele>1834</ele>
        <time>2018-12-11T11:11:37Z</time>
      </trkpt>
      <trkpt lat="45.96304" lon="6.47915">
        <ele>1836</ele>
        <time>2018-12-11T11:11:58Z</time>
      </trkpt>
      <trkpt lat="45.96299" lon="6.47909">
        <ele>1840</ele>
        <time>2018-12-11T11:12:33Z</time>
      </trkpt>
      <trkpt lat="45.96293" lon="6.4791">
        <ele>1841</ele>
        <time>2018-12-11T11:12:44Z</time>
      </trkpt>
      <trkpt lat="45.96289" lon="6.47911">
        <ele>1840</ele>
        <time>2018-12-11T11:12:56Z</time>
      </trkpt>
      <trkpt lat="45.96294" lon="6.47898">
        <ele>1843</ele>
        <time>2018-12-11T11:13:26Z</time>
      </trkpt>
      <trkpt lat="45.96289" lon="6.47897">
        <ele>1845</ele>
        <time>2018-12-11T11:13:50Z</time>
      </trkpt>
      <trkpt lat="45.96285" lon="6.47897">
        <ele>1846</ele>
        <time>2018-12-11T11:14:02Z</time>
      </trkpt>
      <trkpt lat="45.9628" lon="6.47894">
        <ele>1846</ele>
        <time>2018-12-11T11:14:14Z</time>
      </trkpt>
      <trkpt lat="45.96283" lon="6.47884">
        <ele>1850</ele>
        <time>2018-12-11T11:14:50Z</time>
      </trkpt>
      <trkpt lat="45.96283" lon="6.47875">
        <ele>1851</ele>
        <time>2018-12-11T11:15:02Z</time>
      </trkpt>
      <trkpt lat="45.96278" lon="6.47872">
        <ele>1853</ele>
        <time>2018-12-11T11:15:20Z</time>
      </trkpt>
      <trkpt lat="45.96273" lon="6.47874">
        <ele>1855</ele>
        <time>2018-12-11T11:15:38Z</time>
      </trkpt>
      <trkpt lat="45.96267" lon="6.47874">
        <ele>1855</ele>
        <time>2018-12-11T11:15:50Z</time>
      </trkpt>
      <trkpt lat="45.96268" lon="6.47866">
        <ele>1858</ele>
        <time>2018-12-11T11:16:20Z</time>
      </trkpt>
      <trkpt lat="45.96271" lon="6.4786">
        <ele>1860</ele>
        <time>2018-12-11T11:16:38Z</time>
      </trkpt>
      <trkpt lat="45.96264" lon="6.47859">
        <ele>1861</ele>
        <time>2018-12-11T11:16:50Z</time>
      </trkpt>
      <trkpt lat="45.96259" lon="6.4786">
        <ele>1864</ele>
        <time>2018-12-11T11:17:08Z</time>
      </trkpt>
      <trkpt lat="45.9626" lon="6.47842">
        <ele>1868</ele>
        <time>2018-12-11T11:17:44Z</time>
      </trkpt>
      <trkpt lat="45.96261" lon="6.47835">
        <ele>1869</ele>
        <time>2018-12-11T11:17:56Z</time>
      </trkpt>
      <trkpt lat="45.96255" lon="6.47833">
        <ele>1872</ele>
        <time>2018-12-11T11:18:14Z</time>
      </trkpt>
      <trkpt lat="45.9625" lon="6.47837">
        <ele>1873</ele>
        <time>2018-12-11T11:18:26Z</time>
      </trkpt>
      <trkpt lat="45.96245" lon="6.47839">
        <ele>1874</ele>
        <time>2018-12-11T11:18:38Z</time>
      </trkpt>
      <trkpt lat="45.96246" lon="6.47832">
        <ele>1874</ele>
        <time>2018-12-11T11:18:56Z</time>
      </trkpt>
      <trkpt lat="45.96246" lon="6.47824">
        <ele>1876</ele>
        <time>2018-12-11T11:19:11Z</time>
      </trkpt>
      <trkpt lat="45.9624" lon="6.47824">
        <ele>1878</ele>
        <time>2018-12-11T11:19:31Z</time>
      </trkpt>
      <trkpt lat="45.96235" lon="6.47829">
        <ele>1878</ele>
        <time>2018-12-11T11:19:42Z</time>
      </trkpt>
      <trkpt lat="45.96234" lon="6.47822">
        <ele>1881</ele>
        <time>2018-12-11T11:20:06Z</time>
      </trkpt>
      <trkpt lat="45.96236" lon="6.47805">
        <ele>1884</ele>
        <time>2018-12-11T11:20:30Z</time>
      </trkpt>
      <trkpt lat="45.9623" lon="6.47801">
        <ele>1888</ele>
        <time>2018-12-11T11:21:06Z</time>
      </trkpt>
      <trkpt lat="45.96227" lon="6.47797">
        <ele>1892</ele>
        <time>2018-12-11T11:21:48Z</time>
      </trkpt>
      <trkpt lat="45.96221" lon="6.47794">
        <ele>1894</ele>
        <time>2018-12-11T11:22:01Z</time>
      </trkpt>
      <trkpt lat="45.9621" lon="6.47803">
        <ele>1897</ele>
        <time>2018-12-11T11:22:25Z</time>
      </trkpt>
      <trkpt lat="45.96208" lon="6.47796">
        <ele>1898</ele>
        <time>2018-12-11T11:22:37Z</time>
      </trkpt>
      <trkpt lat="45.96208" lon="6.47787">
        <ele>1899</ele>
        <time>2018-12-11T11:22:49Z</time>
      </trkpt>
      <trkpt lat="45.96208" lon="6.47779">
        <ele>1900</ele>
        <time>2018-12-11T11:23:01Z</time>
      </trkpt>
      <trkpt lat="45.96198" lon="6.47788">
        <ele>1903</ele>
        <time>2018-12-11T11:23:25Z</time>
      </trkpt>
      <trkpt lat="45.96193" lon="6.47794">
        <ele>1904</ele>
        <time>2018-12-11T11:23:37Z</time>
      </trkpt>
      <trkpt lat="45.96182" lon="6.47804">
        <ele>1907</ele>
        <time>2018-12-11T11:24:01Z</time>
      </trkpt>
      <trkpt lat="45.96175" lon="6.47789">
        <ele>1909</ele>
        <time>2018-12-11T11:24:25Z</time>
      </trkpt>
      <trkpt lat="45.96174" lon="6.47769">
        <ele>1913</ele>
        <time>2018-12-11T11:24:49Z</time>
      </trkpt>
      <trkpt lat="45.96173" lon="6.47763">
        <ele>1915</ele>
        <time>2018-12-11T11:25:07Z</time>
      </trkpt>
      <trkpt lat="45.96168" lon="6.47763">
        <ele>1916</ele>
        <time>2018-12-11T11:25:19Z</time>
      </trkpt>
      <trkpt lat="45.9616" lon="6.47765">
        <ele>1918</ele>
        <time>2018-12-11T11:25:37Z</time>
      </trkpt>
      <trkpt lat="45.96154" lon="6.47771">
        <ele>1919</ele>
        <time>2018-12-11T11:25:49Z</time>
      </trkpt>
      <trkpt lat="45.96148" lon="6.47776">
        <ele>1920</ele>
        <time>2018-12-11T11:26:01Z</time>
      </trkpt>
      <trkpt lat="45.96145" lon="6.47769">
        <ele>1923</ele>
        <time>2018-12-11T11:26:33Z</time>
      </trkpt>
      <trkpt lat="45.96145" lon="6.47762">
        <ele>1925</ele>
        <time>2018-12-11T11:26:48Z</time>
      </trkpt>
      <trkpt lat="45.96145" lon="6.47755">
        <ele>1927</ele>
        <time>2018-12-11T11:27:00Z</time>
      </trkpt>
      <trkpt lat="45.96134" lon="6.47763">
        <ele>1929</ele>
        <time>2018-12-11T11:27:24Z</time>
      </trkpt>
      <trkpt lat="45.96128" lon="6.47767">
        <ele>1931</ele>
        <time>2018-12-11T11:27:36Z</time>
      </trkpt>
      <trkpt lat="45.96123" lon="6.47771">
        <ele>1933</ele>
        <time>2018-12-11T11:27:54Z</time>
      </trkpt>
      <trkpt lat="45.96121" lon="6.47761">
        <ele>1938</ele>
        <time>2018-12-11T11:28:36Z</time>
      </trkpt>
      <trkpt lat="45.96121" lon="6.47743">
        <ele>1941</ele>
        <time>2018-12-11T11:29:00Z</time>
      </trkpt>
      <trkpt lat="45.96119" lon="6.47734">
        <ele>1943</ele>
        <time>2018-12-11T11:29:24Z</time>
      </trkpt>
      <trkpt lat="45.96115" lon="6.47735">
        <ele>1944</ele>
        <time>2018-12-11T11:29:30Z</time>
      </trkpt>
      <trkpt lat="45.9611" lon="6.47737">
        <ele>1945</ele>
        <time>2018-12-11T11:29:42Z</time>
      </trkpt>
      <trkpt lat="45.96095" lon="6.47744">
        <ele>1949</ele>
        <time>2018-12-11T11:30:12Z</time>
      </trkpt>
      <trkpt lat="45.96089" lon="6.47743">
        <ele>1951</ele>
        <time>2018-12-11T11:30:24Z</time>
      </trkpt>
      <trkpt lat="45.96094" lon="6.47716">
        <ele>1956</ele>
        <time>2018-12-11T11:31:06Z</time>
      </trkpt>
      <trkpt lat="45.96095" lon="6.47706">
        <ele>1957</ele>
        <time>2018-12-11T11:31:46Z</time>
      </trkpt>
      <trkpt lat="45.96085" lon="6.47699">
        <ele>1961</ele>
        <time>2018-12-11T11:32:12Z</time>
      </trkpt>
      <trkpt lat="45.96079" lon="6.47693">
        <ele>1962</ele>
        <time>2018-12-11T11:32:24Z</time>
      </trkpt>
      <trkpt lat="45.96083" lon="6.47683">
        <ele>1964</ele>
        <time>2018-12-11T11:32:36Z</time>
      </trkpt>
      <trkpt lat="45.96091" lon="6.47673">
        <ele>1966</ele>
        <time>2018-12-11T11:33:00Z</time>
      </trkpt>
      <trkpt lat="45.96097" lon="6.47669">
        <ele>1967</ele>
        <time>2018-12-11T11:33:12Z</time>
      </trkpt>
      <trkpt lat="45.96103" lon="6.47668">
        <ele>1968</ele>
        <time>2018-12-11T11:33:23Z</time>
      </trkpt>
      <trkpt lat="45.96116" lon="6.47667">
        <ele>1971</ele>
        <time>2018-12-11T11:33:44Z</time>
      </trkpt>
      <trkpt lat="45.96124" lon="6.47663">
        <ele>1972</ele>
        <time>2018-12-11T11:34:05Z</time>
      </trkpt>
      <trkpt lat="45.96125" lon="6.47656">
        <ele>1973</ele>
        <time>2018-12-11T11:34:11Z</time>
      </trkpt>
      <trkpt lat="45.96126" lon="6.47631">
        <ele>1978</ele>
        <time>2018-12-11T11:34:47Z</time>
      </trkpt>
      <trkpt lat="45.96127" lon="6.47609">
        <ele>1981</ele>
        <time>2018-12-11T11:35:11Z</time>
      </trkpt>
      <trkpt lat="45.96121" lon="6.47587">
        <ele>1989</ele>
        <time>2018-12-11T11:35:53Z</time>
      </trkpt>
      <trkpt lat="45.96114" lon="6.47581">
        <ele>1990</ele>
        <time>2018-12-11T11:36:05Z</time>
      </trkpt>
      <trkpt lat="45.96109" lon="6.47578">
        <ele>1992</ele>
        <time>2018-12-11T11:36:17Z</time>
      </trkpt>
      <trkpt lat="45.96103" lon="6.47579">
        <ele>1994</ele>
        <time>2018-12-11T11:36:29Z</time>
      </trkpt>
      <trkpt lat="45.96082" lon="6.4758">
        <ele>2002</ele>
        <time>2018-12-11T11:37:05Z</time>
      </trkpt>
      <trkpt lat="45.96077" lon="6.47576">
        <ele>2004</ele>
        <time>2018-12-11T11:37:17Z</time>
      </trkpt>
      <trkpt lat="45.96061" lon="6.47573">
        <ele>2008</ele>
        <time>2018-12-11T11:37:53Z</time>
      </trkpt>
      <trkpt lat="45.96048" lon="6.47571">
        <ele>2012</ele>
        <time>2018-12-11T11:38:17Z</time>
      </trkpt>
      <trkpt lat="45.96037" lon="6.47574">
        <ele>2015</ele>
        <time>2018-12-11T11:38:41Z</time>
      </trkpt>
      <trkpt lat="45.96032" lon="6.47578">
        <ele>2016</ele>
        <time>2018-12-11T11:38:53Z</time>
      </trkpt>
      <trkpt lat="45.96027" lon="6.47581">
        <ele>2018</ele>
        <time>2018-12-11T11:39:05Z</time>
      </trkpt>
      <trkpt lat="45.9601" lon="6.47596">
        <ele>2022</ele>
        <time>2018-12-11T11:39:41Z</time>
      </trkpt>
      <trkpt lat="45.95999" lon="6.47605">
        <ele>2025</ele>
        <time>2018-12-11T11:40:05Z</time>
      </trkpt>
      <trkpt lat="45.95986" lon="6.47621">
        <ele>2028</ele>
        <time>2018-12-11T11:40:44Z</time>
      </trkpt>
      <trkpt lat="45.9598" lon="6.47623">
        <ele>2028</ele>
        <time>2018-12-11T11:40:54Z</time>
      </trkpt>
      <trkpt lat="45.95972" lon="6.47626">
        <ele>2027</ele>
        <time>2018-12-11T11:41:04Z</time>
      </trkpt>
      <trkpt lat="45.95967" lon="6.47628">
        <ele>2027</ele>
        <time>2018-12-11T11:41:09Z</time>
      </trkpt>
      <trkpt lat="45.95957" lon="6.47634">
        <ele>2027</ele>
        <time>2018-12-11T11:41:22Z</time>
      </trkpt>
      <trkpt lat="45.95951" lon="6.47635">
        <ele>2028</ele>
        <time>2018-12-11T11:41:32Z</time>
      </trkpt>
      <trkpt lat="45.95943" lon="6.47642">
        <ele>2028</ele>
        <time>2018-12-11T11:42:07Z</time>
      </trkpt>
      <trkpt lat="45.95938" lon="6.47646">
        <ele>2027</ele>
        <time>2018-12-11T11:42:12Z</time>
      </trkpt>
      <trkpt lat="45.95927" lon="6.47652">
        <ele>2027</ele>
        <time>2018-12-11T11:42:24Z</time>
      </trkpt>
      <trkpt lat="45.95921" lon="6.47655">
        <ele>2027</ele>
        <time>2018-12-11T11:42:32Z</time>
      </trkpt>
      <trkpt lat="45.95916" lon="6.47654">
        <ele>2028</ele>
        <time>2018-12-11T11:42:44Z</time>
      </trkpt>
      <trkpt lat="45.95904" lon="6.47669">
        <ele>2032</ele>
        <time>2018-12-11T11:43:20Z</time>
      </trkpt>
      <trkpt lat="45.95905" lon="6.47676">
        <ele>2035</ele>
        <time>2018-12-11T11:43:38Z</time>
      </trkpt>
      <trkpt lat="45.9591" lon="6.47679">
        <ele>2036</ele>
        <time>2018-12-11T11:44:14Z</time>
      </trkpt>
      <trkpt lat="45.95913" lon="6.47686">
        <ele>2038</ele>
        <time>2018-12-11T11:44:26Z</time>
      </trkpt>
      <trkpt lat="45.95908" lon="6.47694">
        <ele>2041</ele>
        <time>2018-12-11T11:44:44Z</time>
      </trkpt>
      <trkpt lat="45.95901" lon="6.47698">
        <ele>2042</ele>
        <time>2018-12-11T11:44:56Z</time>
      </trkpt>
      <trkpt lat="45.95896" lon="6.47705">
        <ele>2043</ele>
        <time>2018-12-11T11:45:08Z</time>
      </trkpt>
      <trkpt lat="45.95892" lon="6.47711">
        <ele>2045</ele>
        <time>2018-12-11T11:45:20Z</time>
      </trkpt>
      <trkpt lat="45.95886" lon="6.47715">
        <ele>2046</ele>
        <time>2018-12-11T11:45:32Z</time>
      </trkpt>
      <trkpt lat="45.95881" lon="6.47722">
        <ele>2047</ele>
        <time>2018-12-11T11:45:44Z</time>
      </trkpt>
      <trkpt lat="45.95879" lon="6.47724">
        <ele>2050</ele>
        <time>2018-12-11T12:42:45Z</time>
      </trkpt>
      <trkpt lat="45.95884" lon="6.47715">
        <ele>2050</ele>
        <time>2018-12-11T12:46:22Z</time>
      </trkpt>
      <trkpt lat="45.95888" lon="6.4771">
        <ele>2047</ele>
        <time>2018-12-11T12:46:25Z</time>
      </trkpt>
      <trkpt lat="45.95899" lon="6.47701">
        <ele>2045</ele>
        <time>2018-12-11T12:46:31Z</time>
      </trkpt>
      <trkpt lat="45.95904" lon="6.47696">
        <ele>2043</ele>
        <time>2018-12-11T12:46:42Z</time>
      </trkpt>
      <trkpt lat="45.95908" lon="6.47696">
        <ele>2043</ele>
        <time>2018-12-11T12:46:45Z</time>
      </trkpt>
      <trkpt lat="45.95913" lon="6.47697">
        <ele>2042</ele>
        <time>2018-12-11T12:46:51Z</time>
      </trkpt>
      <trkpt lat="45.95915" lon="6.47689">
        <ele>2040</ele>
        <time>2018-12-11T12:46:54Z</time>
      </trkpt>
      <trkpt lat="45.95916" lon="6.47682">
        <ele>2038</ele>
        <time>2018-12-11T12:46:57Z</time>
      </trkpt>
      <trkpt lat="45.95922" lon="6.4768">
        <ele>2037</ele>
        <time>2018-12-11T12:47:00Z</time>
      </trkpt>
      <trkpt lat="45.95933" lon="6.47683">
        <ele>2034</ele>
        <time>2018-12-11T12:47:07Z</time>
      </trkpt>
      <trkpt lat="45.9594" lon="6.4768">
        <ele>2031</ele>
        <time>2018-12-11T12:47:10Z</time>
      </trkpt>
      <trkpt lat="45.95947" lon="6.47675">
        <ele>2029</ele>
        <time>2018-12-11T12:47:12Z</time>
      </trkpt>
      <trkpt lat="45.95951" lon="6.47669">
        <ele>2030</ele>
        <time>2018-12-11T12:47:14Z</time>
      </trkpt>
      <trkpt lat="45.95949" lon="6.47649">
        <ele>2031</ele>
        <time>2018-12-11T12:47:38Z</time>
      </trkpt>
      <trkpt lat="45.95949" lon="6.47639">
        <ele>2031</ele>
        <time>2018-12-11T12:47:50Z</time>
      </trkpt>
      <trkpt lat="45.95956" lon="6.47631">
        <ele>2031</ele>
        <time>2018-12-11T12:48:08Z</time>
      </trkpt>
      <trkpt lat="45.95962" lon="6.47629">
        <ele>2030</ele>
        <time>2018-12-11T12:48:11Z</time>
      </trkpt>
      <trkpt lat="45.95967" lon="6.47627">
        <ele>2029</ele>
        <time>2018-12-11T12:48:14Z</time>
      </trkpt>
      <trkpt lat="45.95972" lon="6.47626">
        <ele>2029</ele>
        <time>2018-12-11T12:48:19Z</time>
      </trkpt>
      <trkpt lat="45.95977" lon="6.47624">
        <ele>2030</ele>
        <time>2018-12-11T12:48:27Z</time>
      </trkpt>
      <trkpt lat="45.95987" lon="6.47621">
        <ele>2030</ele>
        <time>2018-12-11T12:48:38Z</time>
      </trkpt>
      <trkpt lat="45.96004" lon="6.47604">
        <ele>2027</ele>
        <time>2018-12-11T12:48:45Z</time>
      </trkpt>
      <trkpt lat="45.96009" lon="6.47602">
        <ele>2027</ele>
        <time>2018-12-11T12:48:47Z</time>
      </trkpt>
      <trkpt lat="45.96023" lon="6.47592">
        <ele>2022</ele>
        <time>2018-12-11T12:48:53Z</time>
      </trkpt>
      <trkpt lat="45.96042" lon="6.47587">
        <ele>2017</ele>
        <time>2018-12-11T12:48:59Z</time>
      </trkpt>
      <trkpt lat="45.96043" lon="6.47579">
        <ele>2016</ele>
        <time>2018-12-11T12:49:02Z</time>
      </trkpt>
      <trkpt lat="45.96046" lon="6.4757">
        <ele>2014</ele>
        <time>2018-12-11T12:49:39Z</time>
      </trkpt>
      <trkpt lat="45.96052" lon="6.47571">
        <ele>2013</ele>
        <time>2018-12-11T12:49:41Z</time>
      </trkpt>
      <trkpt lat="45.96063" lon="6.4758">
        <ele>2011</ele>
        <time>2018-12-11T12:49:45Z</time>
      </trkpt>
      <trkpt lat="45.96114" lon="6.47592">
        <ele>1997</ele>
        <time>2018-12-11T12:49:58Z</time>
      </trkpt>
      <trkpt lat="45.96123" lon="6.47603">
        <ele>1994</ele>
        <time>2018-12-11T12:50:02Z</time>
      </trkpt>
      <trkpt lat="45.96126" lon="6.47611">
        <ele>1991</ele>
        <time>2018-12-11T12:50:05Z</time>
      </trkpt>
      <trkpt lat="45.96139" lon="6.47619">
        <ele>1986</ele>
        <time>2018-12-11T12:50:09Z</time>
      </trkpt>
      <trkpt lat="45.96148" lon="6.47631">
        <ele>1982</ele>
        <time>2018-12-11T12:50:13Z</time>
      </trkpt>
      <trkpt lat="45.9617" lon="6.47641">
        <ele>1973</ele>
        <time>2018-12-11T12:50:19Z</time>
      </trkpt>
      <trkpt lat="45.96177" lon="6.47646">
        <ele>1970</ele>
        <time>2018-12-11T12:50:21Z</time>
      </trkpt>
      <trkpt lat="45.96185" lon="6.4766">
        <ele>1965</ele>
        <time>2018-12-11T12:50:25Z</time>
      </trkpt>
      <trkpt lat="45.96222" lon="6.47681">
        <ele>1951</ele>
        <time>2018-12-11T12:50:37Z</time>
      </trkpt>
      <trkpt lat="45.96236" lon="6.47685">
        <ele>1946</ele>
        <time>2018-12-11T12:50:41Z</time>
      </trkpt>
      <trkpt lat="45.96243" lon="6.47687">
        <ele>1946</ele>
        <time>2018-12-11T12:50:42Z</time>
      </trkpt>
      <trkpt lat="45.96245" lon="6.47694">
        <ele>1945</ele>
        <time>2018-12-11T12:50:43Z</time>
      </trkpt>
      <trkpt lat="45.96247" lon="6.47714">
        <ele>1943</ele>
        <time>2018-12-11T12:50:49Z</time>
      </trkpt>
      <trkpt lat="45.96244" lon="6.47718">
        <ele>1943</ele>
        <time>2018-12-11T12:51:05Z</time>
      </trkpt>
      <trkpt lat="45.96245" lon="6.47726">
        <ele>1936</ele>
        <time>2018-12-11T12:54:40Z</time>
      </trkpt>
      <trkpt lat="45.9625" lon="6.47728">
        <ele>1933</ele>
        <time>2018-12-11T12:54:43Z</time>
      </trkpt>
      <trkpt lat="45.96261" lon="6.47716">
        <ele>1929</ele>
        <time>2018-12-11T12:54:47Z</time>
      </trkpt>
      <trkpt lat="45.96265" lon="6.47705">
        <ele>1927</ele>
        <time>2018-12-11T12:54:49Z</time>
      </trkpt>
      <trkpt lat="45.96266" lon="6.47698">
        <ele>1927</ele>
        <time>2018-12-11T12:54:50Z</time>
      </trkpt>
      <trkpt lat="45.96267" lon="6.47687">
        <ele>1925</ele>
        <time>2018-12-11T12:54:52Z</time>
      </trkpt>
      <trkpt lat="45.96271" lon="6.47679">
        <ele>1923</ele>
        <time>2018-12-11T12:54:54Z</time>
      </trkpt>
      <trkpt lat="45.96278" lon="6.47672">
        <ele>1921</ele>
        <time>2018-12-11T12:54:56Z</time>
      </trkpt>
      <trkpt lat="45.96284" lon="6.47669">
        <ele>1918</ele>
        <time>2018-12-11T12:54:58Z</time>
      </trkpt>
      <trkpt lat="45.9629" lon="6.47666">
        <ele>1916</ele>
        <time>2018-12-11T12:55:00Z</time>
      </trkpt>
      <trkpt lat="45.96294" lon="6.4766">
        <ele>1914</ele>
        <time>2018-12-11T12:55:02Z</time>
      </trkpt>
      <trkpt lat="45.963" lon="6.47648">
        <ele>1911</ele>
        <time>2018-12-11T12:55:06Z</time>
      </trkpt>
      <trkpt lat="45.96298" lon="6.4764">
        <ele>1908</ele>
        <time>2018-12-11T12:55:10Z</time>
      </trkpt>
      <trkpt lat="45.96295" lon="6.47635">
        <ele>1906</ele>
        <time>2018-12-11T12:55:12Z</time>
      </trkpt>
      <trkpt lat="45.96295" lon="6.47624">
        <ele>1902</ele>
        <time>2018-12-11T12:55:16Z</time>
      </trkpt>
      <trkpt lat="45.9629" lon="6.47618">
        <ele>1900</ele>
        <time>2018-12-11T12:55:18Z</time>
      </trkpt>
      <trkpt lat="45.96284" lon="6.47604">
        <ele>1895</ele>
        <time>2018-12-11T12:55:24Z</time>
      </trkpt>
      <trkpt lat="45.96284" lon="6.47597">
        <ele>1893</ele>
        <time>2018-12-11T12:55:26Z</time>
      </trkpt>
      <trkpt lat="45.96285" lon="6.47589">
        <ele>1891</ele>
        <time>2018-12-11T12:55:31Z</time>
      </trkpt>
      <trkpt lat="45.96288" lon="6.47582">
        <ele>1888</ele>
        <time>2018-12-11T12:56:01Z</time>
      </trkpt>
      <trkpt lat="45.96284" lon="6.47575">
        <ele>1886</ele>
        <time>2018-12-11T12:56:03Z</time>
      </trkpt>
      <trkpt lat="45.9628" lon="6.47568">
        <ele>1884</ele>
        <time>2018-12-11T12:56:05Z</time>
      </trkpt>
      <trkpt lat="45.96283" lon="6.47561">
        <ele>1881</ele>
        <time>2018-12-11T12:56:07Z</time>
      </trkpt>
      <trkpt lat="45.96284" lon="6.47553">
        <ele>1879</ele>
        <time>2018-12-11T12:56:09Z</time>
      </trkpt>
      <trkpt lat="45.96285" lon="6.47547">
        <ele>1877</ele>
        <time>2018-12-11T12:56:11Z</time>
      </trkpt>
      <trkpt lat="45.96287" lon="6.47542">
        <ele>1875</ele>
        <time>2018-12-11T12:56:13Z</time>
      </trkpt>
      <trkpt lat="45.96288" lon="6.4753">
        <ele>1871</ele>
        <time>2018-12-11T12:56:16Z</time>
      </trkpt>
      <trkpt lat="45.96289" lon="6.47522">
        <ele>1871</ele>
        <time>2018-12-11T12:56:18Z</time>
      </trkpt>
      <trkpt lat="45.96284" lon="6.47515">
        <ele>1868</ele>
        <time>2018-12-11T12:56:21Z</time>
      </trkpt>
      <trkpt lat="45.96289" lon="6.47507">
        <ele>1864</ele>
        <time>2018-12-11T12:56:35Z</time>
      </trkpt>
      <trkpt lat="45.96285" lon="6.4748">
        <ele>1856</ele>
        <time>2018-12-11T12:56:41Z</time>
      </trkpt>
      <trkpt lat="45.96283" lon="6.47472">
        <ele>1852</ele>
        <time>2018-12-11T12:56:44Z</time>
      </trkpt>
      <trkpt lat="45.9628" lon="6.47467">
        <ele>1850</ele>
        <time>2018-12-11T12:56:46Z</time>
      </trkpt>
      <trkpt lat="45.9628" lon="6.4746">
        <ele>1848</ele>
        <time>2018-12-11T12:56:48Z</time>
      </trkpt>
      <trkpt lat="45.9628" lon="6.47453">
        <ele>1845</ele>
        <time>2018-12-11T12:56:50Z</time>
      </trkpt>
      <trkpt lat="45.9628" lon="6.47445">
        <ele>1842</ele>
        <time>2018-12-11T12:56:52Z</time>
      </trkpt>
      <trkpt lat="45.96279" lon="6.47436">
        <ele>1840</ele>
        <time>2018-12-11T12:56:54Z</time>
      </trkpt>
      <trkpt lat="45.96275" lon="6.4743">
        <ele>1838</ele>
        <time>2018-12-11T12:56:56Z</time>
      </trkpt>
      <trkpt lat="45.96276" lon="6.47415">
        <ele>1833</ele>
        <time>2018-12-11T12:57:01Z</time>
      </trkpt>
      <trkpt lat="45.96281" lon="6.47408">
        <ele>1831</ele>
        <time>2018-12-11T12:57:04Z</time>
      </trkpt>
      <trkpt lat="45.9628" lon="6.47401">
        <ele>1826</ele>
        <time>2018-12-11T12:57:19Z</time>
      </trkpt>
      <trkpt lat="45.9628" lon="6.47393">
        <ele>1823</ele>
        <time>2018-12-11T12:57:21Z</time>
      </trkpt>
      <trkpt lat="45.96278" lon="6.47386">
        <ele>1821</ele>
        <time>2018-12-11T12:57:23Z</time>
      </trkpt>
      <trkpt lat="45.96277" lon="6.47368">
        <ele>1815</ele>
        <time>2018-12-11T12:57:27Z</time>
      </trkpt>
      <trkpt lat="45.96276" lon="6.47359">
        <ele>1813</ele>
        <time>2018-12-11T12:57:29Z</time>
      </trkpt>
      <trkpt lat="45.96275" lon="6.47352">
        <ele>1810</ele>
        <time>2018-12-11T12:57:31Z</time>
      </trkpt>
      <trkpt lat="45.9628" lon="6.47347">
        <ele>1808</ele>
        <time>2018-12-11T12:57:34Z</time>
      </trkpt>
      <trkpt lat="45.9628" lon="6.47339">
        <ele>1806</ele>
        <time>2018-12-11T12:57:36Z</time>
      </trkpt>
      <trkpt lat="45.96275" lon="6.47337">
        <ele>1804</ele>
        <time>2018-12-11T12:58:02Z</time>
      </trkpt>
      <trkpt lat="45.96272" lon="6.47331">
        <ele>1802</ele>
        <time>2018-12-11T12:58:04Z</time>
      </trkpt>
      <trkpt lat="45.96275" lon="6.47324">
        <ele>1799</ele>
        <time>2018-12-11T12:58:06Z</time>
      </trkpt>
      <trkpt lat="45.96277" lon="6.47316">
        <ele>1796</ele>
        <time>2018-12-11T12:58:08Z</time>
      </trkpt>
      <trkpt lat="45.96275" lon="6.47301">
        <ele>1795</ele>
        <time>2018-12-11T12:58:09Z</time>
      </trkpt>
      <trkpt lat="45.96272" lon="6.47288">
        <ele>1795</ele>
        <time>2018-12-11T12:58:12Z</time>
      </trkpt>
      <trkpt lat="45.96271" lon="6.4728">
        <ele>1794</ele>
        <time>2018-12-11T12:58:31Z</time>
      </trkpt>
      <trkpt lat="45.96262" lon="6.47264">
        <ele>1790</ele>
        <time>2018-12-11T12:58:46Z</time>
      </trkpt>
      <trkpt lat="45.96266" lon="6.47259">
        <ele>1784</ele>
        <time>2018-12-11T12:58:50Z</time>
      </trkpt>
      <trkpt lat="45.9627" lon="6.47252">
        <ele>1781</ele>
        <time>2018-12-11T12:58:53Z</time>
      </trkpt>
      <trkpt lat="45.9627" lon="6.47244">
        <ele>1778</ele>
        <time>2018-12-11T12:58:56Z</time>
      </trkpt>
      <trkpt lat="45.96275" lon="6.47236">
        <ele>1771</ele>
        <time>2018-12-11T12:59:02Z</time>
      </trkpt>
      <trkpt lat="45.96279" lon="6.47232">
        <ele>1768</ele>
        <time>2018-12-11T12:59:05Z</time>
      </trkpt>
      <trkpt lat="45.96281" lon="6.47222">
        <ele>1765</ele>
        <time>2018-12-11T12:59:08Z</time>
      </trkpt>
      <trkpt lat="45.96291" lon="6.47198">
        <ele>1755</ele>
        <time>2018-12-11T12:59:39Z</time>
      </trkpt>
      <trkpt lat="45.96313" lon="6.47152">
        <ele>1735</ele>
        <time>2018-12-11T12:59:51Z</time>
      </trkpt>
      <trkpt lat="45.96314" lon="6.47142">
        <ele>1733</ele>
        <time>2018-12-11T12:59:53Z</time>
      </trkpt>
      <trkpt lat="45.96316" lon="6.47133">
        <ele>1730</ele>
        <time>2018-12-11T12:59:56Z</time>
      </trkpt>
      <trkpt lat="45.96314" lon="6.47123">
        <ele>1728</ele>
        <time>2018-12-11T12:59:59Z</time>
      </trkpt>
      <trkpt lat="45.96302" lon="6.47106">
        <ele>1726</ele>
        <time>2018-12-11T13:00:05Z</time>
      </trkpt>
      <trkpt lat="45.96306" lon="6.47095">
        <ele>1721</ele>
        <time>2018-12-11T13:00:10Z</time>
      </trkpt>
      <trkpt lat="45.96311" lon="6.47081">
        <ele>1716</ele>
        <time>2018-12-11T13:00:14Z</time>
      </trkpt>
      <trkpt lat="45.96314" lon="6.47073">
        <ele>1713</ele>
        <time>2018-12-11T13:00:16Z</time>
      </trkpt>
      <trkpt lat="45.96309" lon="6.47066">
        <ele>1711</ele>
        <time>2018-12-11T13:00:54Z</time>
      </trkpt>
      <trkpt lat="45.963" lon="6.47057">
        <ele>1710</ele>
        <time>2018-12-11T13:01:00Z</time>
      </trkpt>
      <trkpt lat="45.96295" lon="6.4705">
        <ele>1710</ele>
        <time>2018-12-11T13:01:03Z</time>
      </trkpt>
      <trkpt lat="45.96291" lon="6.47042">
        <ele>1708</ele>
        <time>2018-12-11T13:01:05Z</time>
      </trkpt>
      <trkpt lat="45.96289" lon="6.47032">
        <ele>1707</ele>
        <time>2018-12-11T13:01:07Z</time>
      </trkpt>
      <trkpt lat="45.9629" lon="6.46994">
        <ele>1698</ele>
        <time>2018-12-11T13:01:13Z</time>
      </trkpt>
      <trkpt lat="45.9629" lon="6.46975">
        <ele>1693</ele>
        <time>2018-12-11T13:01:16Z</time>
      </trkpt>
      <trkpt lat="45.96291" lon="6.46969">
        <ele>1691</ele>
        <time>2018-12-11T13:01:17Z</time>
      </trkpt>
      <trkpt lat="45.96291" lon="6.4695">
        <ele>1686</ele>
        <time>2018-12-11T13:01:20Z</time>
      </trkpt>
      <trkpt lat="45.96292" lon="6.46941">
        <ele>1683</ele>
        <time>2018-12-11T13:01:22Z</time>
      </trkpt>
      <trkpt lat="45.96295" lon="6.46923">
        <ele>1680</ele>
        <time>2018-12-11T13:01:25Z</time>
      </trkpt>
      <trkpt lat="45.96305" lon="6.46843">
        <ele>1671</ele>
        <time>2018-12-11T13:01:38Z</time>
      </trkpt>
      <trkpt lat="45.96307" lon="6.46834">
        <ele>1671</ele>
        <time>2018-12-11T13:01:40Z</time>
      </trkpt>
      <trkpt lat="45.96322" lon="6.46753">
        <ele>1663</ele>
        <time>2018-12-11T13:01:52Z</time>
      </trkpt>
      <trkpt lat="45.96326" lon="6.46749">
        <ele>1664</ele>
        <time>2018-12-11T13:01:54Z</time>
      </trkpt>
      <trkpt lat="45.96328" lon="6.46739">
        <ele>1663</ele>
        <time>2018-12-11T13:02:33Z</time>
      </trkpt>
      <trkpt lat="45.9633" lon="6.46728">
        <ele>1660</ele>
        <time>2018-12-11T13:02:35Z</time>
      </trkpt>
      <trkpt lat="45.96333" lon="6.46723">
        <ele>1659</ele>
        <time>2018-12-11T13:02:36Z</time>
      </trkpt>
      <trkpt lat="45.96334" lon="6.46716">
        <ele>1657</ele>
        <time>2018-12-11T13:02:37Z</time>
      </trkpt>
      <trkpt lat="45.96339" lon="6.4671">
        <ele>1655</ele>
        <time>2018-12-11T13:02:38Z</time>
      </trkpt>
      <trkpt lat="45.96341" lon="6.46702">
        <ele>1654</ele>
        <time>2018-12-11T13:02:39Z</time>
      </trkpt>
      <trkpt lat="45.96352" lon="6.46676">
        <ele>1650</ele>
        <time>2018-12-11T13:02:43Z</time>
      </trkpt>
      <trkpt lat="45.96357" lon="6.46669">
        <ele>1651</ele>
        <time>2018-12-11T13:02:45Z</time>
      </trkpt>
      <trkpt lat="45.96384" lon="6.4662">
        <ele>1640</ele>
        <time>2018-12-11T13:03:00Z</time>
      </trkpt>
      <trkpt lat="45.96388" lon="6.46616">
        <ele>1639</ele>
        <time>2018-12-11T13:03:01Z</time>
      </trkpt>
      <trkpt lat="45.96394" lon="6.46612">
        <ele>1639</ele>
        <time>2018-12-11T13:03:03Z</time>
      </trkpt>
      <trkpt lat="45.96401" lon="6.46608">
        <ele>1638</ele>
        <time>2018-12-11T13:03:19Z</time>
      </trkpt>
      <trkpt lat="45.96404" lon="6.46599">
        <ele>1636</ele>
        <time>2018-12-11T13:03:21Z</time>
      </trkpt>
      <trkpt lat="45.96405" lon="6.46591">
        <ele>1633</ele>
        <time>2018-12-11T13:03:23Z</time>
      </trkpt>
      <trkpt lat="45.96407" lon="6.46582">
        <ele>1630</ele>
        <time>2018-12-11T13:03:25Z</time>
      </trkpt>
      <trkpt lat="45.96412" lon="6.46578">
        <ele>1629</ele>
        <time>2018-12-11T13:03:27Z</time>
      </trkpt>
      <trkpt lat="45.96456" lon="6.46511">
        <ele>1613</ele>
        <time>2018-12-11T13:03:48Z</time>
      </trkpt>
      <trkpt lat="45.96461" lon="6.46506">
        <ele>1613</ele>
        <time>2018-12-11T13:03:50Z</time>
      </trkpt>
      <trkpt lat="45.96467" lon="6.46508">
        <ele>1611</ele>
        <time>2018-12-11T13:05:26Z</time>
      </trkpt>
      <trkpt lat="45.96467" lon="6.46501">
        <ele>1609</ele>
        <time>2018-12-11T13:05:28Z</time>
      </trkpt>
      <trkpt lat="45.96468" lon="6.46493">
        <ele>1605</ele>
        <time>2018-12-11T13:05:30Z</time>
      </trkpt>
      <trkpt lat="45.96474" lon="6.46478">
        <ele>1598</ele>
        <time>2018-12-11T13:05:35Z</time>
      </trkpt>
      <trkpt lat="45.96474" lon="6.46472">
        <ele>1596</ele>
        <time>2018-12-11T13:05:37Z</time>
      </trkpt>
      <trkpt lat="45.96478" lon="6.46467">
        <ele>1593</ele>
        <time>2018-12-11T13:05:40Z</time>
      </trkpt>
      <trkpt lat="45.96486" lon="6.46462">
        <ele>1586</ele>
        <time>2018-12-11T13:05:45Z</time>
      </trkpt>
      <trkpt lat="45.9649" lon="6.46453">
        <ele>1582</ele>
        <time>2018-12-11T13:05:47Z</time>
      </trkpt>
      <trkpt lat="45.96494" lon="6.46442">
        <ele>1580</ele>
        <time>2018-12-11T13:05:49Z</time>
      </trkpt>
      <trkpt lat="45.965" lon="6.46428">
        <ele>1578</ele>
        <time>2018-12-11T13:05:53Z</time>
      </trkpt>
      <trkpt lat="45.96505" lon="6.46422">
        <ele>1575</ele>
        <time>2018-12-11T13:05:55Z</time>
      </trkpt>
      <trkpt lat="45.96509" lon="6.46421">
        <ele>1575</ele>
        <time>2018-12-11T13:05:57Z</time>
      </trkpt>
      <trkpt lat="45.96514" lon="6.46417">
        <ele>1572</ele>
        <time>2018-12-11T13:06:00Z</time>
      </trkpt>
      <trkpt lat="45.96515" lon="6.46409">
        <ele>1570</ele>
        <time>2018-12-11T13:06:02Z</time>
      </trkpt>
      <trkpt lat="45.96519" lon="6.46396">
        <ele>1566</ele>
        <time>2018-12-11T13:06:06Z</time>
      </trkpt>
      <trkpt lat="45.9652" lon="6.46387">
        <ele>1562</ele>
        <time>2018-12-11T13:06:08Z</time>
      </trkpt>
      <trkpt lat="45.96522" lon="6.46374">
        <ele>1557</ele>
        <time>2018-12-11T13:06:12Z</time>
      </trkpt>
      <trkpt lat="45.96518" lon="6.46366">
        <ele>1555</ele>
        <time>2018-12-11T13:06:14Z</time>
      </trkpt>
      <trkpt lat="45.96511" lon="6.4636">
        <ele>1554</ele>
        <time>2018-12-11T13:06:16Z</time>
      </trkpt>
      <trkpt lat="45.96506" lon="6.46351">
        <ele>1552</ele>
        <time>2018-12-11T13:06:18Z</time>
      </trkpt>
      <trkpt lat="45.96515" lon="6.46322">
        <ele>1543</ele>
        <time>2018-12-11T13:06:23Z</time>
      </trkpt>
      <trkpt lat="45.96515" lon="6.46311">
        <ele>1541</ele>
        <time>2018-12-11T13:06:25Z</time>
      </trkpt>
      <trkpt lat="45.96522" lon="6.46307">
        <ele>1539</ele>
        <time>2018-12-11T13:06:27Z</time>
      </trkpt>
      <trkpt lat="45.96527" lon="6.46306">
        <ele>1537</ele>
        <time>2018-12-11T13:06:28Z</time>
      </trkpt>
      <trkpt lat="45.96538" lon="6.46305">
        <ele>1536</ele>
        <time>2018-12-11T13:06:31Z</time>
      </trkpt>
      <trkpt lat="45.96546" lon="6.463">
        <ele>1535</ele>
        <time>2018-12-11T13:06:33Z</time>
      </trkpt>
      <trkpt lat="45.96548" lon="6.46293">
        <ele>1533</ele>
        <time>2018-12-11T13:06:35Z</time>
      </trkpt>
      <trkpt lat="45.96543" lon="6.46276">
        <ele>1529</ele>
        <time>2018-12-11T13:06:58Z</time>
      </trkpt>
      <trkpt lat="45.96533" lon="6.46263">
        <ele>1526</ele>
        <time>2018-12-11T13:07:01Z</time>
      </trkpt>
      <trkpt lat="45.9653" lon="6.46255">
        <ele>1524</ele>
        <time>2018-12-11T13:07:03Z</time>
      </trkpt>
      <trkpt lat="45.96538" lon="6.46245">
        <ele>1519</ele>
        <time>2018-12-11T13:07:07Z</time>
      </trkpt>
      <trkpt lat="45.96541" lon="6.46238">
        <ele>1518</ele>
        <time>2018-12-11T13:07:09Z</time>
      </trkpt>
      <trkpt lat="45.96561" lon="6.46209">
        <ele>1507</ele>
        <time>2018-12-11T13:07:16Z</time>
      </trkpt>
      <trkpt lat="45.96587" lon="6.4616">
        <ele>1492</ele>
        <time>2018-12-11T13:07:27Z</time>
      </trkpt>
      <trkpt lat="45.96602" lon="6.46139">
        <ele>1484</ele>
        <time>2018-12-11T13:07:33Z</time>
      </trkpt>
      <trkpt lat="45.96608" lon="6.46137">
        <ele>1484</ele>
        <time>2018-12-11T13:07:53Z</time>
      </trkpt>
      <trkpt lat="45.96613" lon="6.46128">
        <ele>1482</ele>
        <time>2018-12-11T13:07:55Z</time>
      </trkpt>
      <trkpt lat="45.96616" lon="6.46119">
        <ele>1482</ele>
        <time>2018-12-11T13:07:56Z</time>
      </trkpt>
      <trkpt lat="45.96625" lon="6.46106">
        <ele>1478</ele>
        <time>2018-12-11T13:07:59Z</time>
      </trkpt>
      <trkpt lat="45.96644" lon="6.46076">
        <ele>1472</ele>
        <time>2018-12-11T13:08:05Z</time>
      </trkpt>
      <trkpt lat="45.96652" lon="6.4607">
        <ele>1469</ele>
        <time>2018-12-11T13:08:07Z</time>
      </trkpt>
      <trkpt lat="45.96658" lon="6.46071">
        <ele>1469</ele>
        <time>2018-12-11T13:08:09Z</time>
      </trkpt>
      <trkpt lat="45.96662" lon="6.46065">
        <ele>1467</ele>
        <time>2018-12-11T13:08:44Z</time>
      </trkpt>
      <trkpt lat="45.96675" lon="6.46038">
        <ele>1460</ele>
        <time>2018-12-11T13:08:50Z</time>
      </trkpt>
      <trkpt lat="45.96677" lon="6.46029">
        <ele>1458</ele>
        <time>2018-12-11T13:08:51Z</time>
      </trkpt>
      <trkpt lat="45.96687" lon="6.46016">
        <ele>1453</ele>
        <time>2018-12-11T13:08:54Z</time>
      </trkpt>
      <trkpt lat="45.96695" lon="6.46012">
        <ele>1451</ele>
        <time>2018-12-11T13:08:56Z</time>
      </trkpt>
      <trkpt lat="45.96703" lon="6.46011">
        <ele>1449</ele>
        <time>2018-12-11T13:08:58Z</time>
      </trkpt>
      <trkpt lat="45.96752" lon="6.45972">
        <ele>1438</ele>
        <time>2018-12-11T13:09:10Z</time>
      </trkpt>
      <trkpt lat="45.96765" lon="6.45968">
        <ele>1436</ele>
        <time>2018-12-11T13:09:14Z</time>
      </trkpt>
      <trkpt lat="45.96773" lon="6.45958">
        <ele>1434</ele>
        <time>2018-12-11T13:09:50Z</time>
      </trkpt>
      <trkpt lat="45.96817" lon="6.45915">
        <ele>1421</ele>
        <time>2018-12-11T13:10:03Z</time>
      </trkpt>
      <trkpt lat="45.9683" lon="6.45916">
        <ele>1418</ele>
        <time>2018-12-11T13:10:07Z</time>
      </trkpt>
      <trkpt lat="45.96836" lon="6.45911">
        <ele>1416</ele>
        <time>2018-12-11T13:10:09Z</time>
      </trkpt>
      <trkpt lat="45.96841" lon="6.45908">
        <ele>1414</ele>
        <time>2018-12-11T13:10:10Z</time>
      </trkpt>
      <trkpt lat="45.96858" lon="6.45899">
        <ele>1411</ele>
        <time>2018-12-11T13:10:14Z</time>
      </trkpt>
      <trkpt lat="45.96871" lon="6.4588">
        <ele>1408</ele>
        <time>2018-12-11T13:10:18Z</time>
      </trkpt>
      <trkpt lat="45.96877" lon="6.45878">
        <ele>1406</ele>
        <time>2018-12-11T13:10:20Z</time>
      </trkpt>
      <trkpt lat="45.96883" lon="6.45877">
        <ele>1405</ele>
        <time>2018-12-11T13:10:22Z</time>
      </trkpt>
      <trkpt lat="45.96888" lon="6.45875">
        <ele>1403</ele>
        <time>2018-12-11T13:10:24Z</time>
      </trkpt>
      <trkpt lat="45.96894" lon="6.45875">
        <ele>1402</ele>
        <time>2018-12-11T13:10:26Z</time>
      </trkpt>
      <trkpt lat="45.96914" lon="6.45889">
        <ele>1399</ele>
        <time>2018-12-11T13:10:30Z</time>
      </trkpt>
      <trkpt lat="45.96921" lon="6.45893">
        <ele>1400</ele>
        <time>2018-12-11T13:10:32Z</time>
      </trkpt>
      <trkpt lat="45.96925" lon="6.45896">
        <ele>1400</ele>
        <time>2018-12-11T13:10:35Z</time>
      </trkpt>
      <trkpt lat="45.96937" lon="6.459">
        <ele>1399</ele>
        <time>2018-12-11T13:10:40Z</time>
      </trkpt>
      <trkpt lat="45.96944" lon="6.45902">
        <ele>1398</ele>
        <time>2018-12-11T13:10:44Z</time>
      </trkpt>
      <trkpt lat="45.96956" lon="6.45904">
        <ele>1397</ele>
        <time>2018-12-11T13:10:49Z</time>
      </trkpt>
      <trkpt lat="45.96972" lon="6.45913">
        <ele>1396</ele>
        <time>2018-12-11T13:10:57Z</time>
      </trkpt>
      <trkpt lat="45.96976" lon="6.45916">
        <ele>1396</ele>
        <time>2018-12-11T13:10:59Z</time>
      </trkpt>
      <trkpt lat="45.96991" lon="6.45938">
        <ele>1394</ele>
        <time>2018-12-11T13:11:09Z</time>
      </trkpt>
      <trkpt lat="45.96997" lon="6.45958">
        <ele>1391</ele>
        <time>2018-12-11T13:11:14Z</time>
      </trkpt>
      <trkpt lat="45.97004" lon="6.45965">
        <ele>1389</ele>
        <time>2018-12-11T13:11:16Z</time>
      </trkpt>
      <trkpt lat="45.97018" lon="6.4598">
        <ele>1385</ele>
        <time>2018-12-11T13:11:19Z</time>
      </trkpt>
      <trkpt lat="45.97024" lon="6.45986">
        <ele>1385</ele>
        <time>2018-12-11T13:11:20Z</time>
      </trkpt>
      <trkpt lat="45.97029" lon="6.45991">
        <ele>1383</ele>
        <time>2018-12-11T13:11:21Z</time>
      </trkpt>
      <trkpt lat="45.97033" lon="6.45997">
        <ele>1383</ele>
        <time>2018-12-11T13:11:22Z</time>
      </trkpt>
      <trkpt lat="45.97046" lon="6.46005">
        <ele>1383</ele>
        <time>2018-12-11T13:11:24Z</time>
      </trkpt>
      <trkpt lat="45.97046" lon="6.46006">
        <ele>1382</ele>
        <time>2018-12-11T13:11:31Z</time>
      </trkpt>
      <trkpt lat="45.97052" lon="6.46006">
        <ele>1382</ele>
        <time>2018-12-11T13:11:44Z</time>
      </trkpt>
      <trkpt lat="45.97093" lon="6.4602">
        <ele>1377</ele>
        <time>2018-12-11T13:12:08Z</time>
      </trkpt>
      <trkpt lat="45.97098" lon="6.46021">
        <ele>1377</ele>
        <time>2018-12-11T13:12:12Z</time>
      </trkpt>
      <trkpt lat="45.97126" lon="6.4604">
        <ele>1373</ele>
        <time>2018-12-11T13:12:31Z</time>
      </trkpt>
      <trkpt lat="45.9713" lon="6.46044">
        <ele>1373</ele>
        <time>2018-12-11T13:12:33Z</time>
      </trkpt>
      <trkpt lat="45.97156" lon="6.46063">
        <ele>1369</ele>
        <time>2018-12-11T13:12:48Z</time>
      </trkpt>
      <trkpt lat="45.97163" lon="6.46063">
        <ele>1368</ele>
        <time>2018-12-11T13:12:51Z</time>
      </trkpt>
      <trkpt lat="45.97167" lon="6.46057">
        <ele>1366</ele>
        <time>2018-12-11T13:12:53Z</time>
      </trkpt>
      <trkpt lat="45.97214" lon="6.45956">
        <ele>1343</ele>
        <time>2018-12-11T13:13:13Z</time>
      </trkpt>
      <trkpt lat="45.97214" lon="6.45947">
        <ele>1342</ele>
        <time>2018-12-11T13:13:14Z</time>
      </trkpt>
      <trkpt lat="45.97219" lon="6.4595">
        <ele>1340</ele>
        <time>2018-12-11T13:13:16Z</time>
      </trkpt>
      <trkpt lat="45.97225" lon="6.45947">
        <ele>1340</ele>
        <time>2018-12-11T13:13:50Z</time>
      </trkpt>
      <trkpt lat="45.97249" lon="6.4594">
        <ele>1336</ele>
        <time>2018-12-11T13:13:57Z</time>
      </trkpt>
      <trkpt lat="45.97257" lon="6.45938">
        <ele>1336</ele>
        <time>2018-12-11T13:13:59Z</time>
      </trkpt>
      <trkpt lat="45.97263" lon="6.45939">
        <ele>1335</ele>
        <time>2018-12-11T13:14:01Z</time>
      </trkpt>
      <trkpt lat="45.97272" lon="6.45949">
        <ele>1334</ele>
        <time>2018-12-11T13:14:05Z</time>
      </trkpt>
      <trkpt lat="45.97277" lon="6.45952">
        <ele>1333</ele>
        <time>2018-12-11T13:14:09Z</time>
      </trkpt>
      <trkpt lat="45.97284" lon="6.4595">
        <ele>1333</ele>
        <time>2018-12-11T13:14:13Z</time>
      </trkpt>
      <trkpt lat="45.97292" lon="6.45943">
        <ele>1329</ele>
        <time>2018-12-11T13:14:21Z</time>
      </trkpt>
      <trkpt lat="45.9733" lon="6.45879">
        <ele>1303</ele>
        <time>2018-12-11T13:14:35Z</time>
      </trkpt>
      <trkpt lat="45.97336" lon="6.45861">
        <ele>1299</ele>
        <time>2018-12-11T13:14:37Z</time>
      </trkpt>
      <trkpt lat="45.97335" lon="6.45848">
        <ele>1297</ele>
        <time>2018-12-11T13:14:39Z</time>
      </trkpt>
      <trkpt lat="45.9734" lon="6.4586">
        <ele>1294</ele>
        <time>2018-12-11T13:14:42Z</time>
      </trkpt>
      <trkpt lat="45.97345" lon="6.45861">
        <ele>1294</ele>
        <time>2018-12-11T13:14:44Z</time>
      </trkpt>
      <trkpt lat="45.97338" lon="6.45834">
        <ele>1289</ele>
        <time>2018-12-11T13:15:15Z</time>
      </trkpt>
      <trkpt lat="45.97337" lon="6.45827">
        <ele>1288</ele>
        <time>2018-12-11T13:15:19Z</time>
      </trkpt>
      <trkpt lat="45.97346" lon="6.45824">
        <ele>1281</ele>
        <time>2018-12-11T13:15:49Z</time>
      </trkpt>
      <trkpt lat="45.97342" lon="6.4581">
        <ele>1276</ele>
        <time>2018-12-11T13:16:05Z</time>
      </trkpt>
      <trkpt lat="45.97352" lon="6.45815">
        <ele>1271</ele>
        <time>2018-12-11T13:16:21Z</time>
      </trkpt>
      <trkpt lat="45.97351" lon="6.45808">
        <ele>1271</ele>
        <time>2018-12-11T13:16:34Z</time>
      </trkpt>
      <trkpt lat="45.97355" lon="6.45805">
        <ele>1271</ele>
        <time>2018-12-11T13:16:40Z</time>
      </trkpt>
      <trkpt lat="45.97373" lon="6.45808">
        <ele>1271</ele>
        <time>2018-12-11T13:16:52Z</time>
      </trkpt>
      <trkpt lat="45.97379" lon="6.45809">
        <ele>1269</ele>
        <time>2018-12-11T13:16:55Z</time>
      </trkpt>
      <trkpt lat="45.97384" lon="6.4581">
        <ele>1269</ele>
        <time>2018-12-11T13:16:57Z</time>
      </trkpt>
      <trkpt lat="45.97393" lon="6.45812">
        <ele>1269</ele>
        <time>2018-12-11T13:17:04Z</time>
      </trkpt>
      <trkpt lat="45.97397" lon="6.45816">
        <ele>1269</ele>
        <time>2018-12-11T13:17:12Z</time>
      </trkpt>
      <trkpt lat="45.97409" lon="6.45826">
        <ele>1272</ele>
        <time>2018-12-11T13:17:36Z</time>
      </trkpt>
      <trkpt lat="45.97415" lon="6.4583">
        <ele>1274</ele>
        <time>2018-12-11T13:17:48Z</time>
      </trkpt>
      <trkpt lat="45.97428" lon="6.45844">
        <ele>1276</ele>
        <time>2018-12-11T13:18:11Z</time>
      </trkpt>
    </trkseg>
  </trk>
</gpx>